Wetterdaten: Montag, 31.12.2018
Datum Zeit Temp. Aussen Temp. o. S. +5cm Feuchte Auss Luftdruck Regen Sonnenschein Regendauer Solar Windben Empfang
31.12.2018 00:00 8,1 C 7,2 C 6,7 C 99 % 1030,1 hPa 0,0 l/m 0 min 0 min 0 W/m 9,7 km/h (2 Bft) 95,35 %
31.12.2018 00:02 8,1 C 7,2 C 6,7 C 99 % 1030,1 hPa 0,0 l/m 0 min 0 min 0 W/m 9,7 km/h (2 Bft) 94,44 %
31.12.2018 00:04 8,1 C 7,2 C 6,7 C 99 % 1030,1 hPa 0,0 l/m 0 min 0 min 0 W/m 6,4 km/h (2 Bft) 91,30 %
31.12.2018 00:07 8,1 C 7,2 C 6,7 C 99 % 1030,1 hPa 0,0 l/m 0 min 0 min 0 W/m 3,2 km/h (1 Bft) 97,56 %
31.12.2018 00:08 8,1 C 7,2 C 6,7 C 99 % 1030,1 hPa 0,0 l/m 0 min 0 min 0 W/m 3,2 km/h (1 Bft) 91,67 %
31.12.2018 00:10 8,1 C 7,2 C 6,7 C 99 % 1030,1 hPa 0,0 l/m 0 min 0 min 0 W/m 6,4 km/h (2 Bft) 97,87 %
31.12.2018 00:12 8,1 C 7,2 C 6,7 C 99 % 1030,1 hPa 0,0 l/m 0 min 0 min 0 W/m 9,7 km/h (2 Bft) 97,87 %
31.12.2018 00:14 8,1 C 7,2 C 6,7 C 99 % 1030,1 hPa 0,0 l/m 0 min 0 min 0 W/m 6,4 km/h (2 Bft) 95,74 %
31.12.2018 00:16 8,1 C 7,2 C 6,7 C 99 % 1030,2 hPa 0,0 l/m 0 min 0 min 0 W/m 0,0 km/h (0 Bft) 97,83 %
31.12.2018 00:18 8,1 C 7,2 C 6,7 C 99 % 1030,2 hPa 0,0 l/m 0 min 0 min 0 W/m 0,0 km/h (0 Bft) 97,87 %
31.12.2018 00:20 8,1 C 7,2 C 6,7 C 99 % 1030,1 hPa 0,0 l/m 0 min 0 min 0 W/m 3,2 km/h (1 Bft) 97,87 %
31.12.2018 00:22 8,1 C 7,2 C 6,7 C 99 % 1030,1 hPa 0,0 l/m 0 min 0 min 0 W/m 3,2 km/h (1 Bft) 97,87 %
31.12.2018 00:24 8,1 C 7,2 C 6,7 C 99 % 1030,1 hPa 0,0 l/m 0 min 0 min 0 W/m 6,4 km/h (2 Bft) 97,87 %
31.12.2018 00:26 8,2 C 7,2 C 6,7 C 99 % 1030,0 hPa 0,0 l/m 0 min 0 min 0 W/m 3,2 km/h (1 Bft) 97,83 %
31.12.2018 00:28 8,2 C 7,2 C 6,7 C 99 % 1030,0 hPa 0,0 l/m 0 min 0 min 0 W/m 3,2 km/h (1 Bft) 97,87 %
31.12.2018 00:30 8,2 C 7,2 C 6,7 C 99 % 1030,0 hPa 0,0 l/m 0 min 0 min 0 W/m 6,4 km/h (2 Bft) 95,74 %
31.12.2018 00:32 8,2 C 7,8 C 6,7 C 99 % 1030,0 hPa 0,0 l/m 0 min 2 min 0 W/m 3,2 km/h (1 Bft) 100,00 %
31.12.2018 00:34 8,2 C 7,8 C 6,7 C 99 % 1030,0 hPa 0,0 l/m 0 min 0 min 0 W/m 3,2 km/h (1 Bft) 100,00 %
31.12.2018 00:36 8,2 C 7,8 C 6,7 C 99 % 1030,0 hPa 0,0 l/m 0 min 0 min 0 W/m 3,2 km/h (1 Bft) 98,28 %
31.12.2018 00:38 8,2 C 7,8 C 6,7 C 99 % 1030,0 hPa 0,0 l/m 0 min 2 min 0 W/m 3,2 km/h (1 Bft) 100,00 %
31.12.2018 00:40 8,2 C 7,8 C 6,7 C 99 % 1030,0 hPa 0,0 l/m 0 min 0 min 0 W/m 6,4 km/h (2 Bft) 100,00 %
31.12.2018 00:42 8,2 C 7,8 C 7,2 C 99 % 1030,0 hPa 0,0 l/m 0 min 0 min 0 W/m 6,4 km/h (2 Bft) 97,87 %
31.12.2018 00:44 8,2 C 7,2 C 6,7 C 99 % 1030,1 hPa 0,0 l/m 0 min 0 min 0 W/m 9,7 km/h (2 Bft) 100,00 %
31.12.2018 00:46 8,2 C 7,2 C 6,7 C 99 % 1030,0 hPa 0,0 l/m 0 min 0 min 0 W/m 0,0 km/h (0 Bft) 100,00 %
31.12.2018 00:48 8,2 C 7,8 C 6,7 C 99 % 1030,0 hPa 0,0 l/m 0 min 0 min 0 W/m 3,2 km/h (1 Bft) 100,00 %
31.12.2018 00:50 8,2 C 7,8 C 7,2 C 99 % 1030,1 hPa 0,0 l/m 0 min 0 min 0 W/m 6,4 km/h (2 Bft) 100,00 %
31.12.2018 00:52 8,2 C 7,8 C 6,7 C 99 % 1030,0 hPa 0,0 l/m 0 min 0 min 0 W/m 0,0 km/h (0 Bft) 100,00 %
31.12.2018 00:54 8,2 C 7,8 C 7,2 C 99 % 1030,0 hPa 0,0 l/m 0 min 0 min 0 W/m 9,7 km/h (2 Bft) 100,00 %
31.12.2018 00:56 8,2 C 7,8 C 6,7 C 99 % 1030,1 hPa 0,0 l/m 0 min 0 min 0 W/m 0,0 km/h (0 Bft) 100,00 %
31.12.2018 00:58 8,2 C 7,8 C 7,2 C 99 % 1030,1 hPa 0,0 l/m 0 min 0 min 0 W/m 0,0 km/h (0 Bft) 100,00 %
31.12.2018 01:00 8,2 C 7,8 C 7,2 C 99 % 1030,1 hPa 0,0 l/m 0 min 0 min 0 W/m 3,2 km/h (1 Bft) 100,00 %
31.12.2018 01:02 8,2 C 7,8 C 7,2 C 99 % 1030,2 hPa 0,0 l/m 0 min 0 min 0 W/m 6,4 km/h (2 Bft) 100,00 %
31.12.2018 01:04 8,2 C 7,8 C 7,2 C 99 % 1030,2 hPa 0,0 l/m 0 min 0 min 0 W/m 0,0 km/h (0 Bft) 100,00 %
31.12.2018 01:06 8,2 C 7,8 C 6,7 C 99 % 1030,2 hPa 0,0 l/m 0 min 0 min 0 W/m 3,2 km/h (1 Bft) 100,00 %
31.12.2018 01:08 8,2 C 7,8 C 7,2 C 99 % 1030,2 hPa 0,0 l/m 0 min 0 min 0 W/m 3,2 km/h (1 Bft) 97,87 %
31.12.2018 01:10 8,2 C 7,8 C 6,7 C 99 % 1030,2 hPa 0,0 l/m 0 min 0 min 0 W/m 6,4 km/h (2 Bft) 100,00 %
31.12.2018 01:12 8,2 C 7,8 C 6,7 C 99 % 1030,2 hPa 0,0 l/m 0 min 0 min 0 W/m 3,2 km/h (1 Bft) 97,87 %
31.12.2018 01:14 8,2 C 7,8 C 7,2 C 99 % 1030,2 hPa 0,0 l/m 0 min 0 min 0 W/m 3,2 km/h (1 Bft) 100,00 %
31.12.2018 01:16 8,2 C 7,8 C 7,2 C 99 % 1030,2 hPa 0,0 l/m 0 min 0 min 0 W/m 3,2 km/h (1 Bft) 100,00 %
31.12.2018 01:18 8,2 C 7,8 C 7,2 C 99 % 1030,3 hPa 0,0 l/m 0 min 0 min 0 W/m 9,7 km/h (2 Bft) 100,00 %
31.12.2018 01:20 8,2 C 7,8 C 7,2 C 99 % 1030,2 hPa 0,0 l/m 0 min 0 min 0 W/m 6,4 km/h (2 Bft) 100,00 %
31.12.2018 01:22 8,2 C 7,8 C 7,2 C 99 % 1030,1 hPa 0,0 l/m 0 min 0 min 0 W/m 3,2 km/h (1 Bft) 97,83 %
31.12.2018 01:24 8,2 C 7,8 C 7,2 C 99 % 1030,3 hPa 0,0 l/m 0 min 0 min 0 W/m 3,2 km/h (1 Bft) 100,00 %
31.12.2018 01:26 8,2 C 7,8 C 7,2 C 99 % 1030,3 hPa 0,0 l/m 0 min 0 min 0 W/m 6,4 km/h (2 Bft) 100,00 %
31.12.2018 01:28 8,2 C 7,8 C 7,2 C 99 % 1030,3 hPa 0,0 l/m 0 min 0 min 0 W/m 3,2 km/h (1 Bft) 100,00 %
31.12.2018 01:30 8,2 C 7,8 C 7,2 C 99 % 1030,2 hPa 0,0 l/m 0 min 0 min 0 W/m 3,2 km/h (1 Bft) 100,00 %
31.12.2018 01:32 8,2 C 7,8 C 7,2 C 99 % 1030,3 hPa 0,0 l/m 0 min 0 min 0 W/m 6,4 km/h (2 Bft) 97,87 %
31.12.2018 01:34 8,2 C 7,8 C 7,2 C 99 % 1030,3 hPa 0,0 l/m 0 min 0 min 0 W/m 6,4 km/h (2 Bft) 100,00 %
31.12.2018 01:36 8,2 C 7,8 C 6,7 C 99 % 1030,3 hPa 0,2 l/m 0 min 0 min 0 W/m 0,0 km/h (0 Bft) 97,87 %
31.12.2018 01:38 8,2 C 7,8 C 6,7 C 99 % 1030,3 hPa 0,0 l/m 0 min 0 min 0 W/m 0,0 km/h (0 Bft) 100,00 %
31.12.2018 01:40 8,2 C 7,8 C 6,7 C 99 % 1030,2 hPa 0,0 l/m 0 min 0 min 0 W/m 3,2 km/h (1 Bft) 100,00 %
31.12.2018 01:42 8,2 C 7,8 C 7,2 C 99 % 1030,3 hPa 0,0 l/m 0 min 0 min 0 W/m 6,4 km/h (2 Bft) 100,00 %
31.12.2018 01:44 8,2 C 7,8 C 7,2 C 99 % 1030,3 hPa 0,0 l/m 0 min 0 min 0 W/m 3,2 km/h (1 Bft) 100,00 %
31.12.2018 01:46 8,2 C 7,8 C 6,7 C 99 % 1030,2 hPa 0,0 l/m 0 min 0 min 0 W/m 0,0 km/h (0 Bft) 97,83 %
31.12.2018 01:48 8,2 C 7,8 C 6,7 C 99 % 1030,3 hPa 0,0 l/m 0 min 0 min 0 W/m 0,0 km/h (0 Bft) 97,87 %
31.12.2018 01:50 8,2 C 7,8 C 7,2 C 99 % 1030,2 hPa 0,0 l/m 0 min 2 min 0 W/m 3,2 km/h (1 Bft) 97,87 %
31.12.2018 01:52 8,2 C 7,8 C 7,2 C 99 % 1030,2 hPa 0,0 l/m 0 min 2 min 0 W/m 3,2 km/h (1 Bft) 97,87 %
31.12.2018 01:54 8,2 C 7,8 C 7,2 C 99 % 1030,3 hPa 0,0 l/m 0 min 0 min 0 W/m 3,2 km/h (1 Bft) 97,87 %
31.12.2018 01:56 8,2 C 7,8 C 7,2 C 99 % 1030,4 hPa 0,0 l/m 0 min 0 min 0 W/m 3,2 km/h (1 Bft) 97,87 %
31.12.2018 01:58 8,2 C 7,8 C 7,2 C 99 % 1030,4 hPa 0,0 l/m 0 min 0 min 0 W/m 0,0 km/h (0 Bft) 95,65 %
31.12.2018 02:00 8,2 C 7,8 C 7,2 C 99 % 1030,3 hPa 0,0 l/m 0 min 0 min 0 W/m 3,2 km/h (1 Bft) 97,87 %
31.12.2018 02:02 8,2 C 7,8 C 7,2 C 99 % 1030,3 hPa 0,0 l/m 0 min 0 min 0 W/m 6,4 km/h (2 Bft) 97,87 %
31.12.2018 02:04 8,2 C 7,8 C 7,2 C 99 % 1030,3 hPa 0,0 l/m 0 min 0 min 0 W/m 0,0 km/h (0 Bft) 97,87 %
31.12.2018 02:06 8,2 C 7,8 C 7,2 C 99 % 1030,4 hPa 0,0 l/m 0 min 0 min 0 W/m 0,0 km/h (0 Bft) 95,74 %
31.12.2018 02:08 8,2 C 7,8 C 7,2 C 99 % 1030,4 hPa 0,0 l/m 0 min 0 min 0 W/m 0,0 km/h (0 Bft) 95,74 %
31.12.2018 02:10 8,2 C 7,8 C 7,2 C 99 % 1030,4 hPa 0,0 l/m 0 min 0 min 0 W/m 3,2 km/h (1 Bft) 95,65 %
31.12.2018 02:12 8,2 C 7,8 C 7,2 C 99 % 1030,4 hPa 0,0 l/m 0 min 0 min 0 W/m 3,2 km/h (1 Bft) 95,74 %
31.12.2018 02:14 8,2 C 7,8 C 7,2 C 99 % 1030,4 hPa 0,0 l/m 0 min 0 min 0 W/m 3,2 km/h (1 Bft) 89,36 %
31.12.2018 02:16 8,2 C 7,8 C 7,2 C 99 % 1030,4 hPa 0,0 l/m 0 min 0 min 0 W/m 0,0 km/h (0 Bft) 95,74 %
31.12.2018 02:18 8,2 C 7,8 C 7,2 C 99 % 1030,4 hPa 0,0 l/m 0 min 0 min 0 W/m 3,2 km/h (1 Bft) 95,74 %
31.12.2018 02:20 8,2 C 7,8 C 7,2 C 99 % 1030,4 hPa 0,0 l/m 0 min 0 min 0 W/m 0,0 km/h (0 Bft) 93,62 %
31.12.2018 02:22 8,2 C 7,8 C 7,2 C 99 % 1030,4 hPa 0,0 l/m 0 min 0 min 0 W/m 6,4 km/h (2 Bft) 93,48 %
31.12.2018 02:24 8,2 C 7,8 C 7,2 C 99 % 1030,4 hPa 0,0 l/m 0 min 0 min 0 W/m 3,2 km/h (1 Bft) 93,62 %
31.12.2018 02:26 8,3 C 7,8 C 7,2 C 99 % 1030,4 hPa 0,0 l/m 0 min 0 min 0 W/m 3,2 km/h (1 Bft) 95,74 %
31.12.2018 02:28 8,3 C 7,8 C 7,2 C 99 % 1030,3 hPa 0,0 l/m 0 min 0 min 0 W/m 3,2 km/h (1 Bft) 93,62 %
31.12.2018 02:30 8,3 C 7,8 C 7,2 C 99 % 1030,3 hPa 0,0 l/m 0 min 0 min 0 W/m 3,2 km/h (1 Bft) 95,74 %
31.12.2018 02:32 8,3 C 7,8 C 7,2 C 99 % 1030,3 hPa 0,0 l/m 0 min 0 min 0 W/m 3,2 km/h (1 Bft) 97,83 %
31.12.2018 02:34 8,3 C 7,8 C 7,2 C 99 % 1030,4 hPa 0,0 l/m 0 min 0 min 0 W/m 0,0 km/h (0 Bft) 95,74 %
31.12.2018 02:36 8,3 C 7,8 C 7,2 C 99 % 1030,4 hPa 0,0 l/m 0 min 0 min 0 W/m 0,0 km/h (0 Bft) 95,74 %
31.12.2018 02:38 8,3 C 7,8 C 7,2 C 99 % 1030,4 hPa 0,0 l/m 0 min 0 min 0 W/m 3,2 km/h (1 Bft) 97,87 %
31.12.2018 02:40 8,3 C 7,8 C 7,2 C 99 % 1030,3 hPa 0,0 l/m 0 min 0 min 0 W/m 3,2 km/h (1 Bft) 95,74 %
31.12.2018 02:42 8,3 C 7,8 C 7,2 C 99 % 1030,3 hPa 0,0 l/m 0 min 0 min 0 W/m 3,2 km/h (1 Bft) 93,62 %
31.12.2018 02:44 8,3 C 7,8 C 7,2 C 99 % 1030,3 hPa 0,0 l/m 0 min 0 min 0 W/m 3,2 km/h (1 Bft) 95,65 %
31.12.2018 02:46 8,3 C 7,8 C 7,2 C 99 % 1030,4 hPa 0,0 l/m 0 min 0 min 0 W/m 0,0 km/h (0 Bft) 95,74 %
31.12.2018 02:48 8,3 C 7,8 C 7,2 C 99 % 1030,4 hPa 0,0 l/m 0 min 0 min 0 W/m 3,2 km/h (1 Bft) 95,74 %
31.12.2018 02:50 8,3 C 7,8 C 7,2 C 99 % 1030,4 hPa 0,0 l/m 0 min 0 min 0 W/m 0,0 km/h (0 Bft) 95,74 %
31.12.2018 02:52 8,2 C 7,8 C 7,2 C 99 % 1030,4 hPa 0,0 l/m 0 min 0 min 0 W/m 0,0 km/h (0 Bft) 93,62 %
31.12.2018 02:54 8,3 C 7,8 C 7,2 C 99 % 1030,4 hPa 0,0 l/m 0 min 0 min 0 W/m 0,0 km/h (0 Bft) 93,62 %
31.12.2018 02:56 8,3 C 7,8 C 7,2 C 99 % 1030,4 hPa 0,0 l/m 0 min 2 min 0 W/m 0,0 km/h (0 Bft) 95,65 %
31.12.2018 02:58 8,3 C 7,8 C 7,2 C 99 % 1030,4 hPa 0,0 l/m 0 min 2 min 0 W/m 0,0 km/h (0 Bft) 95,74 %
31.12.2018 03:00 8,3 C 7,8 C 7,2 C 99 % 1030,4 hPa 0,0 l/m 0 min 0 min 0 W/m 0,0 km/h (0 Bft) 97,87 %
31.12.2018 03:02 8,3 C 7,8 C 7,2 C 99 % 1030,5 hPa 0,0 l/m 0 min 0 min 0 W/m 0,0 km/h (0 Bft) 97,87 %
31.12.2018 03:04 8,3 C 7,8 C 7,2 C 99 % 1030,5 hPa 0,0 l/m 0 min 0 min 0 W/m 0,0 km/h (0 Bft) 97,87 %
31.12.2018 03:06 8,3 C 7,8 C 7,2 C 99 % 1030,5 hPa 0,0 l/m 0 min 0 min 0 W/m 0,0 km/h (0 Bft) 97,87 %
31.12.2018 03:08 8,3 C 7,8 C 7,2 C 99 % 1030,5 hPa 0,0 l/m 0 min 0 min 0 W/m 0,0 km/h (0 Bft) 95,65 %
31.12.2018 03:10 8,3 C 7,8 C 7,2 C 99 % 1030,5 hPa 0,0 l/m 0 min 0 min 0 W/m 0,0 km/h (0 Bft) 97,87 %
31.12.2018 03:12 8,3 C 7,8 C 7,2 C 99 % 1030,6 hPa 0,0 l/m 0 min 0 min 0 W/m 0,0 km/h (0 Bft) 97,87 %
31.12.2018 03:14 8,3 C 7,8 C 7,2 C 99 % 1030,5 hPa 0,0 l/m 0 min 0 min 0 W/m 0,0 km/h (0 Bft) 97,87 %
31.12.2018 03:16 8,3 C 7,8 C 7,2 C 99 % 1030,5 hPa 0,0 l/m 0 min 0 min 0 W/m 0,0 km/h (0 Bft) 97,87 %
31.12.2018 03:18 8,3 C 7,8 C 7,2 C 99 % 1030,5 hPa 0,0 l/m 0 min 0 min 0 W/m 0,0 km/h (0 Bft) 97,87 %
31.12.2018 03:20 8,3 C 7,8 C 7,2 C 99 % 1030,6 hPa 0,0 l/m 0 min 0 min 0 W/m 0,0 km/h (0 Bft) 97,83 %
31.12.2018 03:22 8,3 C 7,8 C 7,2 C 99 % 1030,6 hPa 0,0 l/m 0 min 0 min 0 W/m 0,0 km/h (0 Bft) 95,74 %
31.12.2018 03:24 8,3 C 7,8 C 7,2 C 99 % 1030,6 hPa 0,0 l/m 0 min 0 min 0 W/m 0,0 km/h (0 Bft) 95,74 %
31.12.2018 03:26 8,3 C 7,8 C 7,2 C 99 % 1030,6 hPa 0,0 l/m 0 min 0 min 0 W/m 0,0 km/h (0 Bft) 95,74 %
31.12.2018 03:28 8,3 C 7,8 C 7,2 C 99 % 1030,5 hPa 0,0 l/m 0 min 0 min 0 W/m 0,0 km/h (0 Bft) 97,87 %
31.12.2018 03:30 8,3 C 7,8 C 7,2 C 99 % 1030,5 hPa 0,0 l/m 0 min 0 min 0 W/m 0,0 km/h (0 Bft) 97,87 %
31.12.2018 03:32 8,3 C 7,8 C 7,2 C 99 % 1030,5 hPa 0,0 l/m 0 min 0 min 0 W/m 0,0 km/h (0 Bft) 100,00 %
31.12.2018 03:34 8,3 C 7,8 C 7,2 C 99 % 1030,5 hPa 0,0 l/m 0 min 0 min 0 W/m 0,0 km/h (0 Bft) 100,00 %
31.12.2018 03:36 8,2 C 7,8 C 7,2 C 99 % 1030,5 hPa 0,0 l/m 0 min 0 min 0 W/m 0,0 km/h (0 Bft) 100,00 %
31.12.2018 03:38 8,3 C 7,8 C 7,2 C 99 % 1030,5 hPa 0,0 l/m 0 min 0 min 0 W/m 0,0 km/h (0 Bft) 100,00 %
31.12.2018 03:40 8,3 C 7,8 C 7,2 C 99 % 1030,6 hPa 0,0 l/m 0 min 0 min 0 W/m 0,0 km/h (0 Bft) 100,00 %
31.12.2018 03:42 8,3 C 7,8 C 7,2 C 99 % 1030,5 hPa 0,0 l/m 0 min 0 min 0 W/m 0,0 km/h (0 Bft) 100,00 %
31.12.2018 03:44 8,3 C 7,8 C 7,2 C 99 % 1030,5 hPa 0,0 l/m 0 min 0 min 0 W/m 0,0 km/h (0 Bft) 100,00 %
31.12.2018 03:46 8,3 C 7,8 C 7,2 C 99 % 1030,4 hPa 0,0 l/m 0 min 0 min 0 W/m 3,2 km/h (1 Bft) 100,00 %
31.12.2018 03:48 8,3 C 7,8 C 7,2 C 99 % 1030,4 hPa 0,0 l/m 0 min 0 min 0 W/m 3,2 km/h (1 Bft) 100,00 %
31.12.2018 03:50 8,3 C 7,8 C 7,2 C 99 % 1030,4 hPa 0,0 l/m 0 min 0 min 0 W/m 0,0 km/h (0 Bft) 95,74 %
31.12.2018 03:52 8,3 C 7,8 C 7,2 C 99 % 1030,4 hPa 0,0 l/m 0 min 0 min 0 W/m 3,2 km/h (1 Bft) 100,00 %
31.12.2018 03:54 8,3 C 7,8 C 7,2 C 99 % 1030,5 hPa 0,0 l/m 0 min 0 min 0 W/m 3,2 km/h (1 Bft) 100,00 %
31.12.2018 03:56 8,3 C 7,8 C 7,2 C 99 % 1030,5 hPa 0,0 l/m 0 min 0 min 0 W/m 3,2 km/h (1 Bft) 100,00 %
31.12.2018 03:58 8,3 C 7,8 C 7,2 C 99 % 1030,5 hPa 0,0 l/m 0 min 0 min 0 W/m 3,2 km/h (1 Bft) 97,87 %
31.12.2018 04:00 8,3 C 7,8 C 7,2 C 99 % 1030,5 hPa 0,0 l/m 0 min 0 min 0 W/m 3,2 km/h (1 Bft) 100,00 %
31.12.2018 04:05 8,3 C 7,8 C 7,2 C 99 % 1030,4 hPa 0,0 l/m 0 min 5 min 0 W/m 3,2 km/h (1 Bft) 98,55 %
31.12.2018 04:06 8,3 C 7,8 C 7,2 C 99 % 1030,4 hPa 0,0 l/m 0 min 1 min 0 W/m 3,2 km/h (1 Bft) 100,00 %
31.12.2018 04:08 8,3 C 7,8 C 7,2 C 99 % 1030,4 hPa 0,0 l/m 0 min 2 min 0 W/m 3,2 km/h (1 Bft) 100,00 %
31.12.2018 04:10 8,3 C 7,8 C 7,2 C 99 % 1030,4 hPa 0,0 l/m 0 min 2 min 0 W/m 3,2 km/h (1 Bft) 97,87 %
31.12.2018 04:12 8,3 C 7,8 C 7,2 C 99 % 1030,3 hPa 0,0 l/m 0 min 0 min 0 W/m 6,4 km/h (2 Bft) 100,00 %
31.12.2018 04:14 8,3 C 7,8 C 7,2 C 99 % 1030,3 hPa 0,0 l/m 0 min 2 min 0 W/m 6,4 km/h (2 Bft) 100,00 %
31.12.2018 04:16 8,3 C 7,8 C 7,2 C 99 % 1030,3 hPa 0,0 l/m 0 min 2 min 0 W/m 3,2 km/h (1 Bft) 97,87 %
31.12.2018 04:18 8,3 C 7,8 C 7,2 C 99 % 1030,2 hPa 0,0 l/m 0 min 2 min 0 W/m 3,2 km/h (1 Bft) 97,83 %
31.12.2018 04:20 8,3 C 7,8 C 7,2 C 99 % 1030,2 hPa 0,0 l/m 0 min 2 min 0 W/m 3,2 km/h (1 Bft) 97,87 %
31.12.2018 04:22 8,3 C 7,8 C 7,2 C 99 % 1030,2 hPa 0,2 l/m 0 min 2 min 0 W/m 0,0 km/h (0 Bft) 97,87 %
31.12.2018 04:24 8,3 C 7,8 C 7,2 C 99 % 1030,3 hPa 0,0 l/m 0 min 0 min 0 W/m 6,4 km/h (2 Bft) 97,87 %
31.12.2018 04:26 8,4 C 7,8 C 7,2 C 99 % 1030,3 hPa 0,0 l/m 0 min 0 min 0 W/m 0,0 km/h (0 Bft) 97,87 %
31.12.2018 04:28 8,4 C 7,8 C 7,2 C 99 % 1030,3 hPa 0,0 l/m 0 min 0 min 0 W/m 0,0 km/h (0 Bft) 97,83 %
31.12.2018 04:30 8,4 C 7,8 C 7,2 C 99 % 1030,3 hPa 0,0 l/m 0 min 0 min 0 W/m 0,0 km/h (0 Bft) 97,87 %
31.12.2018 04:32 8,4 C 7,8 C 7,2 C 99 % 1030,3 hPa 0,0 l/m 0 min 0 min 0 W/m 0,0 km/h (0 Bft) 95,74 %
31.12.2018 04:34 8,4 C 7,8 C 7,2 C 99 % 1030,2 hPa 0,0 l/m 0 min 0 min 0 W/m 0,0 km/h (0 Bft) 95,74 %
31.12.2018 04:36 8,4 C 7,8 C 7,2 C 99 % 1030,2 hPa 0,0 l/m 0 min 0 min 0 W/m 0,0 km/h (0 Bft) 97,87 %
31.12.2018 04:38 8,4 C 7,8 C 7,2 C 99 % 1030,2 hPa 0,0 l/m 0 min 0 min 0 W/m 0,0 km/h (0 Bft) 97,87 %
31.12.2018 04:40 8,4 C 7,8 C 7,2 C 99 % 1030,2 hPa 0,0 l/m 0 min 0 min 0 W/m 0,0 km/h (0 Bft) 95,65 %
31.12.2018 04:42 8,4 C 7,8 C 7,2 C 99 % 1030,3 hPa 0,0 l/m 0 min 0 min 0 W/m 0,0 km/h (0 Bft) 97,87 %
31.12.2018 04:44 8,4 C 7,8 C 7,2 C 99 % 1030,3 hPa 0,0 l/m 0 min 0 min 0 W/m 0,0 km/h (0 Bft) 97,87 %
31.12.2018 04:46 8,4 C 7,8 C 7,2 C 99 % 1030,2 hPa 0,0 l/m 0 min 0 min 0 W/m 0,0 km/h (0 Bft) 95,74 %
31.12.2018 04:48 8,4 C 7,8 C 7,2 C 99 % 1030,2 hPa 0,0 l/m 0 min 0 min 0 W/m 0,0 km/h (0 Bft) 95,74 %
31.12.2018 04:50 8,4 C 7,8 C 7,2 C 99 % 1030,2 hPa 0,0 l/m 0 min 0 min 0 W/m 0,0 km/h (0 Bft) 97,87 %
31.12.2018 04:52 8,4 C 7,8 C 7,2 C 99 % 1030,2 hPa 0,0 l/m 0 min 0 min 0 W/m 0,0 km/h (0 Bft) 97,83 %
31.12.2018 04:54 8,4 C 7,8 C 7,2 C 99 % 1030,2 hPa 0,0 l/m 0 min 0 min 0 W/m 0,0 km/h (0 Bft) 97,87 %
31.12.2018 04:56 8,4 C 7,8 C 7,2 C 99 % 1030,2 hPa 0,0 l/m 0 min 0 min 0 W/m 0,0 km/h (0 Bft) 97,87 %
31.12.2018 04:58 8,4 C 7,8 C 7,2 C 99 % 1030,2 hPa 0,0 l/m 0 min 0 min 0 W/m 0,0 km/h (0 Bft) 100,00 %
31.12.2018 05:00 8,4 C 7,8 C 7,2 C 99 % 1030,2 hPa 0,0 l/m 0 min 0 min 0 W/m 3,2 km/h (1 Bft) 97,87 %
31.12.2018 05:02 8,4 C 7,8 C 7,2 C 99 % 1030,3 hPa 0,0 l/m 0 min 0 min 0 W/m 0,0 km/h (0 Bft) 100,00 %
31.12.2018 05:04 8,4 C 7,8 C 7,2 C 99 % 1030,3 hPa 0,0 l/m 0 min 0 min 0 W/m 6,4 km/h (2 Bft) 97,83 %
31.12.2018 05:06 8,4 C 7,8 C 7,2 C 99 % 1030,3 hPa 0,0 l/m 0 min 0 min 0 W/m 6,4 km/h (2 Bft) 97,87 %
31.12.2018 05:08 8,4 C 7,8 C 7,2 C 99 % 1030,3 hPa 0,0 l/m 0 min 0 min 0 W/m 3,2 km/h (1 Bft) 100,00 %
31.12.2018 05:10 8,4 C 7,8 C 7,2 C 99 % 1030,3 hPa 0,0 l/m 0 min 0 min 0 W/m 0,0 km/h (0 Bft) 100,00 %
31.12.2018 05:12 8,4 C 7,8 C 7,2 C 99 % 1030,3 hPa 0,0 l/m 0 min 0 min 0 W/m 3,2 km/h (1 Bft) 100,00 %
31.12.2018 05:14 8,4 C 7,8 C 7,2 C 99 % 1030,3 hPa 0,0 l/m 0 min 0 min 0 W/m 3,2 km/h (1 Bft) 97,87 %
31.12.2018 05:16 8,4 C 7,8 C 7,2 C 99 % 1030,3 hPa 0,0 l/m 0 min 0 min 0 W/m 3,2 km/h (1 Bft) 95,65 %
31.12.2018 05:18 8,4 C 7,8 C 7,2 C 99 % 1030,3 hPa 0,0 l/m 0 min 0 min 0 W/m 0,0 km/h (0 Bft) 95,74 %
31.12.2018 05:20 8,4 C 7,8 C 7,2 C 99 % 1030,3 hPa 0,0 l/m 0 min 0 min 0 W/m 3,2 km/h (1 Bft) 97,87 %
31.12.2018 05:22 8,5 C 7,8 C 7,2 C 99 % 1030,3 hPa 0,0 l/m 0 min 0 min 0 W/m 3,2 km/h (1 Bft) 97,87 %
31.12.2018 05:24 8,4 C 7,8 C 7,2 C 99 % 1030,3 hPa 0,0 l/m 0 min 0 min 0 W/m 3,2 km/h (1 Bft) 95,74 %
31.12.2018 05:26 8,5 C 7,8 C 7,2 C 99 % 1030,2 hPa 0,0 l/m 0 min 0 min 0 W/m 3,2 km/h (1 Bft) 93,62 %
31.12.2018 05:28 8,5 C 7,8 C 7,2 C 99 % 1030,2 hPa 0,0 l/m 0 min 0 min 0 W/m 0,0 km/h (0 Bft) 95,65 %
31.12.2018 05:30 8,5 C 7,8 C 7,2 C 99 % 1030,2 hPa 0,0 l/m 0 min 0 min 0 W/m 3,2 km/h (1 Bft) 97,87 %
31.12.2018 05:32 8,5 C 7,8 C 7,2 C 99 % 1030,2 hPa 0,0 l/m 0 min 0 min 0 W/m 3,2 km/h (1 Bft) 97,87 %
31.12.2018 05:34 8,5 C 7,8 C 7,2 C 99 % 1030,2 hPa 0,0 l/m 0 min 0 min 0 W/m 3,2 km/h (1 Bft) 95,74 %
31.12.2018 05:36 8,5 C 7,8 C 7,2 C 99 % 1030,3 hPa 0,0 l/m 0 min 0 min 0 W/m 0,0 km/h (0 Bft) 95,74 %
31.12.2018 05:38 8,5 C 7,8 C 7,2 C 99 % 1030,2 hPa 0,0 l/m 0 min 0 min 0 W/m 3,2 km/h (1 Bft) 95,65 %
31.12.2018 05:40 8,5 C 7,8 C 7,2 C 99 % 1030,2 hPa 0,0 l/m 0 min 0 min 0 W/m 3,2 km/h (1 Bft) 93,62 %
31.12.2018 05:42 8,6 C 7,8 C 7,2 C 99 % 1030,2 hPa 0,0 l/m 0 min 0 min 0 W/m 3,2 km/h (1 Bft) 95,74 %
31.12.2018 05:44 8,6 C 7,8 C 7,2 C 99 % 1030,2 hPa 0,0 l/m 0 min 0 min 0 W/m 3,2 km/h (1 Bft) 95,74 %
31.12.2018 05:46 8,6 C 7,8 C 7,2 C 99 % 1030,2 hPa 0,0 l/m 0 min 0 min 0 W/m 0,0 km/h (0 Bft) 95,74 %
31.12.2018 05:48 8,6 C 7,8 C 7,2 C 99 % 1030,2 hPa 0,0 l/m 0 min 0 min 0 W/m 0,0 km/h (0 Bft) 97,87 %
31.12.2018 05:50 8,6 C 7,8 C 7,2 C 99 % 1030,1 hPa 0,0 l/m 0 min 0 min 0 W/m 0,0 km/h (0 Bft) 95,74 %
31.12.2018 05:52 8,6 C 7,8 C 7,2 C 99 % 1030,1 hPa 0,0 l/m 0 min 0 min 0 W/m 0,0 km/h (0 Bft) 95,65 %
31.12.2018 05:54 8,6 C 7,8 C 7,2 C 99 % 1030,1 hPa 0,0 l/m 0 min 0 min 0 W/m 0,0 km/h (0 Bft) 95,74 %
31.12.2018 05:56 8,6 C 7,8 C 7,2 C 99 % 1030,1 hPa 0,0 l/m 0 min 0 min 0 W/m 0,0 km/h (0 Bft) 95,74 %
31.12.2018 05:58 8,6 C 7,8 C 7,2 C 99 % 1030,1 hPa 0,0 l/m 0 min 0 min 0 W/m 0,0 km/h (0 Bft) 95,74 %
31.12.2018 06:00 8,6 C 7,8 C 7,2 C 99 % 1030,1 hPa 0,0 l/m 0 min 0 min 0 W/m 0,0 km/h (0 Bft) 93,62 %
31.12.2018 06:02 8,6 C 7,8 C 7,2 C 99 % 1030,1 hPa 0,0 l/m 0 min 0 min 0 W/m 3,2 km/h (1 Bft) 95,65 %
31.12.2018 06:04 8,6 C 7,8 C 7,2 C 100 % 1030,1 hPa 0,0 l/m 0 min 0 min 0 W/m 3,2 km/h (1 Bft) 95,74 %
31.12.2018 06:08 8,6 C 7,8 C 7,2 C 100 % 1030,1 hPa 0,0 l/m 0 min 0 min 0 W/m 3,2 km/h (1 Bft) 94,68 %
31.12.2018 06:10 8,6 C 7,8 C 7,2 C 100 % 1030,2 hPa 0,0 l/m 0 min 0 min 0 W/m 6,4 km/h (2 Bft) 97,87 %
31.12.2018 06:12 8,6 C 7,8 C 7,2 C 100 % 1030,1 hPa 0,0 l/m 0 min 0 min 0 W/m 6,4 km/h (2 Bft) 97,87 %
31.12.2018 06:14 8,6 C 7,8 C 7,2 C 100 % 1030,1 hPa 0,0 l/m 0 min 0 min 0 W/m 3,2 km/h (1 Bft) 95,65 %
31.12.2018 06:16 8,6 C 7,8 C 7,2 C 100 % 1030,1 hPa 0,0 l/m 0 min 0 min 0 W/m 3,2 km/h (1 Bft) 97,87 %
31.12.2018 06:18 8,6 C 7,8 C 7,2 C 100 % 1030,1 hPa 0,0 l/m 0 min 0 min 0 W/m 6,4 km/h (2 Bft) 97,87 %
31.12.2018 06:20 8,6 C 7,8 C 7,2 C 100 % 1030,1 hPa 0,0 l/m 0 min 0 min 0 W/m 3,2 km/h (1 Bft) 95,74 %
31.12.2018 06:22 8,6 C 7,8 C 7,2 C 100 % 1030,1 hPa 0,0 l/m 0 min 0 min 0 W/m 12,9 km/h (3 Bft) 95,74 %
31.12.2018 06:24 8,6 C 7,8 C 7,2 C 100 % 1030,2 hPa 0,0 l/m 0 min 0 min 0 W/m 3,2 km/h (1 Bft) 100,00 %
31.12.2018 06:26 8,6 C 7,8 C 7,2 C 100 % 1030,2 hPa 0,0 l/m 0 min 0 min 0 W/m 3,2 km/h (1 Bft) 100,00 %
31.12.2018 06:28 8,6 C 7,8 C 7,2 C 100 % 1030,2 hPa 0,0 l/m 0 min 0 min 0 W/m 3,2 km/h (1 Bft) 100,00 %
31.12.2018 06:30 8,6 C 7,8 C 7,2 C 100 % 1030,2 hPa 0,0 l/m 0 min 0 min 0 W/m 3,2 km/h (1 Bft) 100,00 %
31.12.2018 06:32 8,6 C 7,8 C 7,2 C 100 % 1030,2 hPa 0,0 l/m 0 min 0 min 0 W/m 3,2 km/h (1 Bft) 97,87 %
31.12.2018 06:34 8,6 C 7,8 C 7,2 C 100 % 1030,1 hPa 0,0 l/m 0 min 0 min 0 W/m 6,4 km/h (2 Bft) 100,00 %
31.12.2018 06:36 8,6 C 7,8 C 7,2 C 100 % 1030,2 hPa 0,0 l/m 0 min 0 min 0 W/m 6,4 km/h (2 Bft) 97,87 %
31.12.2018 06:38 8,6 C 7,8 C 7,2 C 100 % 1030,2 hPa 0,0 l/m 0 min 0 min 0 W/m 6,4 km/h (2 Bft) 100,00 %
31.12.2018 06:40 8,6 C 7,8 C 7,2 C 100 % 1030,2 hPa 0,0 l/m 0 min 0 min 0 W/m 6,4 km/h (2 Bft) 100,00 %
31.12.2018 06:42 8,6 C 7,8 C 7,2 C 100 % 1030,2 hPa 0,0 l/m 0 min 0 min 0 W/m 3,2 km/h (1 Bft) 100,00 %
31.12.2018 06:44 8,6 C 7,8 C 7,2 C 100 % 1030,2 hPa 0,0 l/m 0 min 0 min 0 W/m 3,2 km/h (1 Bft) 95,74 %
31.12.2018 06:46 8,6 C 7,8 C 7,2 C 100 % 1030,2 hPa 0,0 l/m 0 min 0 min 0 W/m 3,2 km/h (1 Bft) 97,87 %
31.12.2018 06:48 8,6 C 7,8 C 7,2 C 100 % 1030,3 hPa 0,0 l/m 0 min 0 min 0 W/m 6,4 km/h (2 Bft) 97,87 %
31.12.2018 06:50 8,6 C 7,8 C 7,2 C 100 % 1030,3 hPa 0,0 l/m 0 min 0 min 0 W/m 0,0 km/h (0 Bft) 95,65 %
31.12.2018 06:52 8,6 C 7,8 C 7,2 C 100 % 1030,3 hPa 0,0 l/m 0 min 0 min 0 W/m 3,2 km/h (1 Bft) 97,87 %
31.12.2018 06:54 8,6 C 7,8 C 7,2 C 100 % 1030,4 hPa 0,0 l/m 0 min 0 min 0 W/m 3,2 km/h (1 Bft) 97,87 %
31.12.2018 06:56 8,6 C 7,8 C 7,2 C 100 % 1030,4 hPa 0,0 l/m 0 min 0 min 0 W/m 6,4 km/h (2 Bft) 97,87 %
31.12.2018 06:58 8,6 C 7,8 C 7,2 C 100 % 1030,4 hPa 0,0 l/m 0 min 0 min 0 W/m 3,2 km/h (1 Bft) 97,87 %
31.12.2018 07:00 8,6 C 7,8 C 7,2 C 100 % 1030,4 hPa 0,0 l/m 0 min 0 min 0 W/m 3,2 km/h (1 Bft) 94,29 %
31.12.2018 07:02 8,6 C 7,8 C 7,2 C 100 % 1030,4 hPa 0,0 l/m 0 min 0 min 0 W/m 3,2 km/h (1 Bft) 96,15 %
31.12.2018 07:04 8,6 C 7,8 C 7,2 C 100 % 1030,4 hPa 0,0 l/m 0 min 0 min 0 W/m 9,7 km/h (2 Bft) 93,62 %
31.12.2018 07:06 8,6 C 7,8 C 7,2 C 100 % 1030,4 hPa 0,0 l/m 0 min 0 min 0 W/m 6,4 km/h (2 Bft) 97,87 %
31.12.2018 07:08 8,6 C 7,8 C 7,2 C 100 % 1030,4 hPa 0,0 l/m 0 min 0 min 0 W/m 9,7 km/h (2 Bft) 95,74 %
31.12.2018 07:10 8,6 C 7,8 C 7,2 C 100 % 1030,4 hPa 0,0 l/m 0 min 0 min 0 W/m 6,4 km/h (2 Bft) 97,14 %
31.12.2018 07:12 8,6 C 7,8 C 7,2 C 100 % 1030,5 hPa 0,0 l/m 0 min 0 min 0 W/m 3,2 km/h (1 Bft) 96,55 %
31.12.2018 07:14 8,6 C 7,8 C 7,2 C 100 % 1030,4 hPa 0,0 l/m 0 min 0 min 0 W/m 6,4 km/h (2 Bft) 97,87 %
31.12.2018 07:16 8,6 C 7,8 C 7,2 C 100 % 1030,5 hPa 0,0 l/m 0 min 0 min 0 W/m 9,7 km/h (2 Bft) 97,87 %
31.12.2018 07:18 8,6 C 7,8 C 7,2 C 100 % 1030,4 hPa 0,0 l/m 0 min 0 min 0 W/m 6,4 km/h (2 Bft) 97,87 %
31.12.2018 07:20 8,6 C 7,8 C 7,2 C 100 % 1030,5 hPa 0,0 l/m 0 min 0 min 0 W/m 6,4 km/h (2 Bft) 97,87 %
31.12.2018 07:22 8,6 C 7,8 C 7,2 C 100 % 1030,5 hPa 0,0 l/m 0 min 0 min 0 W/m 6,4 km/h (2 Bft) 97,87 %
31.12.2018 07:24 8,6 C 7,8 C 7,2 C 100 % 1030,6 hPa 0,0 l/m 0 min 0 min 0 W/m 6,4 km/h (2 Bft) 97,87 %
31.12.2018 07:26 8,6 C 7,8 C 7,2 C 100 % 1030,5 hPa 0,0 l/m 0 min 0 min 0 W/m 3,2 km/h (1 Bft) 100,00 %
31.12.2018 07:28 8,6 C 7,8 C 7,2 C 100 % 1030,5 hPa 0,0 l/m 0 min 0 min 0 W/m 3,2 km/h (1 Bft) 100,00 %
31.12.2018 07:30 8,6 C 7,8 C 7,2 C 100 % 1030,5 hPa 0,0 l/m 0 min 0 min 0 W/m 3,2 km/h (1 Bft) 100,00 %
31.12.2018 07:32 8,6 C 7,8 C 7,2 C 100 % 1030,6 hPa 0,0 l/m 0 min 0 min 0 W/m 6,4 km/h (2 Bft) 95,74 %
31.12.2018 07:34 8,6 C 7,8 C 7,2 C 100 % 1030,6 hPa 0,0 l/m 0 min 0 min 0 W/m 6,4 km/h (2 Bft) 100,00 %
31.12.2018 07:36 8,6 C 7,8 C 7,2 C 100 % 1030,6 hPa 0,0 l/m 0 min 0 min 0 W/m 12,9 km/h (3 Bft) 97,83 %
31.12.2018 07:38 8,6 C 7,8 C 7,2 C 100 % 1030,6 hPa 0,0 l/m 0 min 0 min 0 W/m 3,2 km/h (1 Bft) 100,00 %
31.12.2018 07:40 8,6 C 7,8 C 7,2 C 100 % 1030,7 hPa 0,0 l/m 0 min 0 min 0 W/m 3,2 km/h (1 Bft) 95,74 %
31.12.2018 07:42 8,6 C 7,8 C 7,2 C 100 % 1030,7 hPa 0,0 l/m 0 min 0 min 0 W/m 0,0 km/h (0 Bft) 100,00 %
31.12.2018 07:44 8,6 C 7,8 C 7,2 C 100 % 1030,7 hPa 0,0 l/m 0 min 0 min 0 W/m 3,2 km/h (1 Bft) 100,00 %
31.12.2018 07:46 8,6 C 7,8 C 7,2 C 100 % 1030,7 hPa 0,0 l/m 0 min 0 min 0 W/m 3,2 km/h (1 Bft) 100,00 %
31.12.2018 07:48 8,6 C 7,8 C 7,2 C 100 % 1030,7 hPa 0,0 l/m 0 min 0 min 0 W/m 6,4 km/h (2 Bft) 100,00 %
31.12.2018 07:50 8,6 C 7,8 C 7,2 C 100 % 1030,7 hPa 0,0 l/m 0 min 0 min 0 W/m 3,2 km/h (1 Bft) 100,00 %
31.12.2018 07:52 8,6 C 7,8 C 7,2 C 100 % 1030,8 hPa 0,0 l/m 0 min 0 min 0 W/m 3,2 km/h (1 Bft) 100,00 %
31.12.2018 07:54 8,6 C 7,8 C 7,2 C 100 % 1030,8 hPa 0,0 l/m 0 min 0 min 0 W/m 3,2 km/h (1 Bft) 100,00 %
31.12.2018 07:56 8,6 C 7,8 C 7,2 C 100 % 1030,9 hPa 0,0 l/m 0 min 0 min 0 W/m 3,2 km/h (1 Bft) 100,00 %
31.12.2018 07:58 8,6 C 7,8 C 7,2 C 100 % 1030,9 hPa 0,0 l/m 0 min 0 min 0 W/m 6,4 km/h (2 Bft) 100,00 %
31.12.2018 08:00 8,6 C 7,8 C 7,2 C 100 % 1031,0 hPa 0,0 l/m 0 min 0 min 0 W/m 6,4 km/h (2 Bft) 100,00 %
31.12.2018 08:02 8,6 C 7,8 C 7,2 C 100 % 1030,9 hPa 0,0 l/m 0 min 0 min 0 W/m 3,2 km/h (1 Bft) 100,00 %
31.12.2018 08:04 8,6 C 7,8 C 7,2 C 100 % 1031,0 hPa 0,0 l/m 0 min 0 min 0 W/m 6,4 km/h (2 Bft) 100,00 %
31.12.2018 08:06 8,6 C 7,8 C 7,2 C 100 % 1031,1 hPa 0,0 l/m 0 min 0 min 0 W/m 0,0 km/h (0 Bft) 100,00 %
31.12.2018 08:08 8,6 C 7,8 C 7,2 C 100 % 1031,0 hPa 0,0 l/m 0 min 0 min 0 W/m 0,0 km/h (0 Bft) 97,87 %
31.12.2018 08:10 8,6 C 7,8 C 7,2 C 100 % 1031,0 hPa 0,0 l/m 0 min 0 min 0 W/m 3,2 km/h (1 Bft) 97,87 %
31.12.2018 08:12 8,6 C 7,8 C 7,2 C 100 % 1031,1 hPa 0,0 l/m 0 min 0 min 0 W/m 3,2 km/h (1 Bft) 97,83 %
31.12.2018 08:14 8,6 C 7,8 C 7,2 C 100 % 1031,1 hPa 0,0 l/m 0 min 0 min 0 W/m 0,0 km/h (0 Bft) 97,87 %
31.12.2018 08:16 8,6 C 7,8 C 7,2 C 100 % 1031,1 hPa 0,0 l/m 0 min 0 min 0 W/m 3,2 km/h (1 Bft) 100,00 %
31.12.2018 08:18 8,6 C 7,8 C 7,2 C 100 % 1031,1 hPa 0,0 l/m 0 min 0 min 0 W/m 3,2 km/h (1 Bft) 97,87 %
31.12.2018 08:20 8,6 C 7,8 C 7,2 C 100 % 1031,2 hPa 0,0 l/m 0 min 0 min 0 W/m 6,4 km/h (2 Bft) 97,87 %
31.12.2018 08:22 8,6 C 7,8 C 7,2 C 100 % 1031,2 hPa 0,0 l/m 0 min 0 min 0 W/m 0,0 km/h (0 Bft) 93,48 %
31.12.2018 08:24 8,6 C 7,8 C 7,2 C 100 % 1031,2 hPa 0,0 l/m 0 min 0 min 0 W/m 3,2 km/h (1 Bft) 97,87 %
31.12.2018 08:26 8,6 C 7,8 C 7,2 C 100 % 1031,3 hPa 0,0 l/m 0 min 0 min 0 W/m 3,2 km/h (1 Bft) 97,87 %
31.12.2018 08:28 8,6 C 7,8 C 7,2 C 100 % 1031,2 hPa 0,0 l/m 0 min 0 min 0 W/m 3,2 km/h (1 Bft) 97,87 %
31.12.2018 08:30 8,6 C 7,8 C 7,2 C 100 % 1031,2 hPa 0,0 l/m 0 min 0 min 0 W/m 3,2 km/h (1 Bft) 95,74 %
31.12.2018 08:32 8,6 C 7,8 C 7,2 C 100 % 1031,2 hPa 0,0 l/m 0 min 0 min 0 W/m 6,4 km/h (2 Bft) 95,74 %
31.12.2018 08:34 8,6 C 7,8 C 7,2 C 100 % 1031,2 hPa 0,0 l/m 0 min 0 min 0 W/m 0,0 km/h (0 Bft) 95,65 %
31.12.2018 08:36 8,6 C 7,8 C 7,2 C 100 % 1031,2 hPa 0,0 l/m 0 min 0 min 0 W/m 6,4 km/h (2 Bft) 95,74 %
31.12.2018 08:38 8,6 C 7,8 C 7,2 C 100 % 1031,1 hPa 0,0 l/m 0 min 0 min 0 W/m 6,4 km/h (2 Bft) 95,74 %
31.12.2018 08:40 8,6 C 7,8 C 7,2 C 100 % 1031,1 hPa 0,0 l/m 0 min 0 min 0 W/m 3,2 km/h (1 Bft) 95,74 %
31.12.2018 08:42 8,6 C 7,8 C 7,2 C 100 % 1031,1 hPa 0,0 l/m 0 min 0 min 0 W/m 3,2 km/h (1 Bft) 95,74 %
31.12.2018 08:44 8,6 C 7,8 C 7,2 C 100 % 1031,1 hPa 0,0 l/m 0 min 0 min 0 W/m 3,2 km/h (1 Bft) 95,74 %
31.12.2018 08:46 8,6 C 7,8 C 7,2 C 100 % 1031,1 hPa 0,0 l/m 0 min 0 min 0 W/m 3,2 km/h (1 Bft) 97,83 %
31.12.2018 08:48 8,6 C 7,8 C 7,2 C 100 % 1031,1 hPa 0,0 l/m 0 min 0 min 0 W/m 3,2 km/h (1 Bft) 95,74 %
31.12.2018 08:50 8,6 C 7,8 C 7,2 C 100 % 1031,1 hPa 0,0 l/m 0 min 0 min 0 W/m 6,4 km/h (2 Bft) 95,74 %
31.12.2018 08:52 8,6 C 7,8 C 7,2 C 100 % 1031,1 hPa 0,0 l/m 0 min 0 min 0 W/m 3,2 km/h (1 Bft) 93,62 %
31.12.2018 08:54 8,6 C 7,8 C 7,2 C 100 % 1031,1 hPa 0,0 l/m 0 min 0 min 2 W/m 3,2 km/h (1 Bft) 93,62 %
31.12.2018 08:56 8,6 C 7,8 C 7,2 C 100 % 1031,1 hPa 0,0 l/m 0 min 0 min 5 W/m 3,2 km/h (1 Bft) 95,74 %
31.12.2018 08:58 8,6 C 7,8 C 7,2 C 100 % 1031,2 hPa 0,0 l/m 0 min 0 min 5 W/m 6,4 km/h (2 Bft) 93,48 %
31.12.2018 09:00 8,6 C 7,8 C 7,2 C 100 % 1031,2 hPa 0,0 l/m 0 min 0 min 5 W/m 9,7 km/h (2 Bft) 95,74 %
31.12.2018 09:02 8,6 C 7,8 C 7,2 C 100 % 1031,2 hPa 0,0 l/m 0 min 0 min 5 W/m 3,2 km/h (1 Bft) 95,74 %
31.12.2018 09:04 8,6 C 7,8 C 7,2 C 100 % 1031,2 hPa 0,0 l/m 0 min 0 min 5 W/m 0,0 km/h (0 Bft) 93,62 %
31.12.2018 09:06 8,6 C 7,8 C 7,2 C 100 % 1031,3 hPa 0,0 l/m 0 min 0 min 5 W/m 3,2 km/h (1 Bft) 95,74 %
31.12.2018 09:08 8,6 C 7,8 C 7,2 C 100 % 1031,4 hPa 0,0 l/m 0 min 0 min 5 W/m 3,2 km/h (1 Bft) 97,14 %
31.12.2018 09:10 8,6 C 7,8 C 7,2 C 100 % 1031,4 hPa 0,0 l/m 0 min 0 min 6 W/m 9,7 km/h (2 Bft) 93,62 %
31.12.2018 09:12 8,6 C 7,8 C 7,2 C 100 % 1031,4 hPa 0,0 l/m 0 min 0 min 7 W/m 6,4 km/h (2 Bft) 93,48 %
31.12.2018 09:14 8,6 C 7,8 C 7,2 C 100 % 1031,3 hPa 0,0 l/m 0 min 0 min 9 W/m 3,2 km/h (1 Bft) 91,49 %
31.12.2018 09:16 8,6 C 7,8 C 7,2 C 100 % 1031,3 hPa 0,0 l/m 0 min 0 min 11 W/m 3,2 km/h (1 Bft) 95,74 %
31.12.2018 09:18 8,6 C 7,8 C 7,2 C 100 % 1031,4 hPa 0,0 l/m 0 min 0 min 11 W/m 3,2 km/h (1 Bft) 95,74 %
31.12.2018 09:20 8,6 C 7,8 C 7,2 C 100 % 1031,4 hPa 0,0 l/m 0 min 0 min 11 W/m 9,7 km/h (2 Bft) 97,87 %
31.12.2018 09:22 8,6 C 7,8 C 7,2 C 100 % 1031,5 hPa 0,0 l/m 0 min 0 min 11 W/m 9,7 km/h (2 Bft) 97,87 %
31.12.2018 09:24 8,6 C 7,8 C 7,2 C 100 % 1031,5 hPa 0,0 l/m 0 min 0 min 10 W/m 12,9 km/h (3 Bft) 97,83 %
31.12.2018 09:26 8,6 C 7,8 C 7,2 C 100 % 1031,5 hPa 0,0 l/m 0 min 0 min 9 W/m 6,4 km/h (2 Bft) 97,87 %
31.12.2018 09:28 8,6 C 7,8 C 7,2 C 100 % 1031,5 hPa 0,0 l/m 0 min 0 min 10 W/m 9,7 km/h (2 Bft) 97,87 %
31.12.2018 09:30 8,6 C 7,8 C 7,2 C 100 % 1031,5 hPa 0,0 l/m 0 min 0 min 12 W/m 0,0 km/h (0 Bft) 97,87 %
31.12.2018 09:32 8,6 C 7,8 C 7,2 C 100 % 1031,6 hPa 0,0 l/m 0 min 0 min 12 W/m 6,4 km/h (2 Bft) 95,74 %
31.12.2018 09:34 8,6 C 7,8 C 7,2 C 100 % 1031,6 hPa 0,0 l/m 0 min 0 min 11 W/m 6,4 km/h (2 Bft) 97,87 %
31.12.2018 09:36 8,6 C 7,8 C 7,2 C 100 % 1031,5 hPa 0,0 l/m 0 min 0 min 12 W/m 6,4 km/h (2 Bft) 98,28 %
31.12.2018 09:38 8,6 C 7,8 C 7,2 C 100 % 1031,6 hPa 0,0 l/m 0 min 0 min 13 W/m 6,4 km/h (2 Bft) 97,87 %
31.12.2018 09:40 8,6 C 7,8 C 7,2 C 100 % 1031,6 hPa 0,0 l/m 0 min 0 min 12 W/m 6,4 km/h (2 Bft) 94,29 %
31.12.2018 09:42 8,6 C 7,8 C 7,2 C 100 % 1031,6 hPa 0,0 l/m 0 min 0 min 13 W/m 9,7 km/h (2 Bft) 97,87 %
31.12.2018 09:44 8,7 C 7,8 C 7,2 C 100 % 1031,5 hPa 0,0 l/m 0 min 0 min 13 W/m 9,7 km/h (2 Bft) 97,87 %
31.12.2018 09:46 8,6 C 7,8 C 7,2 C 100 % 1031,5 hPa 0,0 l/m 0 min 0 min 13 W/m 9,7 km/h (2 Bft) 97,87 %
31.12.2018 09:48 8,6 C 8,3 C 7,2 C 100 % 1031,5 hPa 0,0 l/m 0 min 0 min 14 W/m 0,0 km/h (0 Bft) 97,83 %
31.12.2018 09:50 8,6 C 8,3 C 7,8 C 100 % 1031,6 hPa 0,0 l/m 0 min 0 min 16 W/m 6,4 km/h (2 Bft) 95,74 %
31.12.2018 09:52 8,7 C 8,3 C 7,8 C 100 % 1031,6 hPa 0,0 l/m 0 min 0 min 17 W/m 12,9 km/h (3 Bft) 95,74 %
31.12.2018 09:54 8,6 C 8,3 C 7,8 C 100 % 1031,6 hPa 0,0 l/m 0 min 0 min 14 W/m 12,9 km/h (3 Bft) 97,87 %
31.12.2018 09:56 8,6 C 8,3 C 7,8 C 100 % 1031,6 hPa 0,0 l/m 0 min 0 min 14 W/m 6,4 km/h (2 Bft) 97,87 %
31.12.2018 09:58 8,6 C 8,3 C 7,8 C 100 % 1031,6 hPa 0,0 l/m 0 min 0 min 18 W/m 0,0 km/h (0 Bft) 93,62 %
31.12.2018 10:00 8,7 C 8,3 C 7,8 C 100 % 1031,6 hPa 0,0 l/m 0 min 0 min 18 W/m 6,4 km/h (2 Bft) 97,83 %
31.12.2018 10:02 8,7 C 8,3 C 7,8 C 100 % 1031,6 hPa 0,0 l/m 0 min 0 min 17 W/m 6,4 km/h (2 Bft) 100,00 %
31.12.2018 10:04 8,7 C 8,3 C 7,8 C 100 % 1031,7 hPa 0,0 l/m 0 min 0 min 16 W/m 9,7 km/h (2 Bft) 100,00 %
31.12.2018 10:06 8,7 C 8,3 C 7,8 C 100 % 1031,6 hPa 0,0 l/m 0 min 0 min 14 W/m 12,9 km/h (3 Bft) 96,61 %
31.12.2018 10:08 8,7 C 8,3 C 7,8 C 100 % 1031,6 hPa 0,0 l/m 0 min 0 min 14 W/m 6,4 km/h (2 Bft) 100,00 %
31.12.2018 10:10 8,7 C 8,3 C 7,8 C 100 % 1031,7 hPa 0,0 l/m 0 min 0 min 14 W/m 16,1 km/h (3 Bft) 100,00 %
31.12.2018 10:12 8,7 C 8,3 C 7,8 C 100 % 1031,7 hPa 0,0 l/m 0 min 0 min 13 W/m 19,3 km/h (3 Bft) 100,00 %
31.12.2018 10:14 8,7 C 8,3 C 7,8 C 100 % 1031,7 hPa 0,0 l/m 0 min 0 min 18 W/m 6,4 km/h (2 Bft) 100,00 %
31.12.2018 10:16 8,7 C 8,3 C 7,8 C 100 % 1031,6 hPa 0,0 l/m 0 min 0 min 18 W/m 16,1 km/h (3 Bft) 95,74 %
31.12.2018 10:18 8,7 C 8,3 C 7,8 C 100 % 1031,7 hPa 0,0 l/m 0 min 0 min 20 W/m 16,1 km/h (3 Bft) 100,00 %
31.12.2018 10:20 8,7 C 8,3 C 7,8 C 100 % 1031,7 hPa 0,0 l/m 0 min 0 min 20 W/m 16,1 km/h (3 Bft) 100,00 %
31.12.2018 10:22 8,7 C 8,3 C 7,8 C 100 % 1031,6 hPa 0,0 l/m 0 min 0 min 28 W/m 6,4 km/h (2 Bft) 100,00 %
31.12.2018 10:24 8,7 C 8,3 C 7,8 C 100 % 1031,6 hPa 0,0 l/m 0 min 0 min 28 W/m 9,7 km/h (2 Bft) 98,00 %
31.12.2018 10:26 8,7 C 8,3 C 7,8 C 100 % 1031,6 hPa 0,0 l/m 0 min 0 min 27 W/m 9,7 km/h (2 Bft) 100,00 %
31.12.2018 10:28 8,7 C 8,3 C 7,8 C 100 % 1031,6 hPa 0,0 l/m 0 min 0 min 26 W/m 12,9 km/h (3 Bft) 93,62 %
31.12.2018 10:30 8,7 C 8,3 C 7,8 C 100 % 1031,7 hPa 0,0 l/m 0 min 0 min 24 W/m 6,4 km/h (2 Bft) 100,00 %
31.12.2018 10:32 8,7 C 8,3 C 7,8 C 100 % 1031,7 hPa 0,0 l/m 0 min 0 min 22 W/m 6,4 km/h (2 Bft) 100,00 %
31.12.2018 10:34 8,7 C 8,3 C 7,8 C 100 % 1031,7 hPa 0,0 l/m 0 min 0 min 25 W/m 3,2 km/h (1 Bft) 100,00 %
31.12.2018 10:36 8,7 C 8,3 C 7,8 C 100 % 1031,7 hPa 0,0 l/m 0 min 0 min 22 W/m 6,4 km/h (2 Bft) 94,92 %
31.12.2018 10:38 8,7 C 8,3 C 7,8 C 100 % 1031,7 hPa 0,0 l/m 0 min 0 min 19 W/m 16,1 km/h (3 Bft) 100,00 %
31.12.2018 10:40 8,7 C 8,3 C 7,8 C 100 % 1031,7 hPa 0,0 l/m 0 min 0 min 21 W/m 9,7 km/h (2 Bft) 97,14 %
31.12.2018 10:42 8,7 C 8,3 C 7,8 C 100 % 1031,8 hPa 0,0 l/m 0 min 0 min 21 W/m 6,4 km/h (2 Bft) 97,87 %
31.12.2018 10:44 8,7 C 8,3 C 7,8 C 100 % 1031,7 hPa 0,0 l/m 0 min 0 min 24 W/m 3,2 km/h (1 Bft) 100,00 %
31.12.2018 10:46 8,7 C 8,3 C 7,8 C 100 % 1031,7 hPa 0,0 l/m 0 min 0 min 22 W/m 0,0 km/h (0 Bft) 100,00 %
31.12.2018 10:48 8,7 C 8,3 C 7,8 C 100 % 1031,7 hPa 0,0 l/m 0 min 0 min 26 W/m 3,2 km/h (1 Bft) 100,00 %
31.12.2018 10:50 8,7 C 8,3 C 7,8 C 100 % 1031,6 hPa 0,0 l/m 0 min 0 min 27 W/m 9,7 km/h (2 Bft) 100,00 %
31.12.2018 10:52 8,7 C 8,3 C 7,8 C 100 % 1031,7 hPa 0,0 l/m 0 min 0 min 27 W/m 9,7 km/h (2 Bft) 100,00 %
31.12.2018 10:54 8,7 C 8,3 C 7,8 C 100 % 1031,7 hPa 0,0 l/m 0 min 0 min 30 W/m 6,4 km/h (2 Bft) 100,00 %
31.12.2018 10:56 8,7 C 8,3 C 7,8 C 100 % 1031,8 hPa 0,0 l/m 0 min 0 min 31 W/m 16,1 km/h (3 Bft) 100,00 %
31.12.2018 10:58 8,7 C 8,3 C 7,8 C 100 % 1031,8 hPa 0,0 l/m 0 min 0 min 27 W/m 6,4 km/h (2 Bft) 97,87 %
31.12.2018 11:00 8,7 C 8,3 C 7,8 C 100 % 1031,8 hPa 0,0 l/m 0 min 0 min 25 W/m 9,7 km/h (2 Bft) 100,00 %
31.12.2018 11:02 8,7 C 8,3 C 7,8 C 100 % 1031,8 hPa 0,0 l/m 0 min 0 min 22 W/m 9,7 km/h (2 Bft) 100,00 %
31.12.2018 11:04 8,7 C 8,3 C 7,8 C 100 % 1031,8 hPa 0,0 l/m 0 min 0 min 23 W/m 3,2 km/h (1 Bft) 97,87 %
31.12.2018 11:06 8,7 C 8,3 C 7,8 C 100 % 1031,7 hPa 0,0 l/m 0 min 0 min 23 W/m 6,4 km/h (2 Bft) 96,55 %
31.12.2018 11:08 8,7 C 8,3 C 7,8 C 100 % 1031,8 hPa 0,0 l/m 0 min 0 min 19 W/m 6,4 km/h (2 Bft) 100,00 %
31.12.2018 11:10 8,7 C 8,3 C 7,8 C 100 % 1031,7 hPa 0,0 l/m 0 min 0 min 21 W/m 3,2 km/h (1 Bft) 97,83 %
31.12.2018 11:12 8,7 C 8,3 C 7,8 C 100 % 1031,7 hPa 0,0 l/m 0 min 0 min 25 W/m 3,2 km/h (1 Bft) 97,87 %
31.12.2018 11:14 8,7 C 8,3 C 7,8 C 100 % 1031,7 hPa 0,0 l/m 0 min 0 min 29 W/m 9,7 km/h (2 Bft) 97,87 %
31.12.2018 11:16 8,7 C 8,3 C 7,8 C 100 % 1031,7 hPa 0,0 l/m 0 min 0 min 32 W/m 9,7 km/h (2 Bft) 97,87 %
31.12.2018 11:18 8,7 C 8,3 C 7,8 C 100 % 1031,7 hPa 0,0 l/m 0 min 0 min 33 W/m 12,9 km/h (3 Bft) 97,87 %
31.12.2018 11:20 8,7 C 8,3 C 7,8 C 100 % 1031,8 hPa 0,0 l/m 0 min 0 min 30 W/m 12,9 km/h (3 Bft) 100,00 %
31.12.2018 11:22 8,7 C 8,3 C 7,8 C 100 % 1031,7 hPa 0,0 l/m 0 min 0 min 28 W/m 3,2 km/h (1 Bft) 100,00 %
31.12.2018 11:24 8,7 C 8,3 C 7,8 C 100 % 1031,7 hPa 0,0 l/m 0 min 0 min 31 W/m 6,4 km/h (2 Bft) 100,00 %
31.12.2018 11:26 8,7 C 8,3 C 7,8 C 100 % 1031,7 hPa 0,0 l/m 0 min 0 min 33 W/m 6,4 km/h (2 Bft) 93,62 %
31.12.2018 11:28 8,7 C 8,3 C 7,8 C 100 % 1031,8 hPa 0,0 l/m 0 min 0 min 35 W/m 6,4 km/h (2 Bft) 95,74 %
31.12.2018 11:30 8,7 C 8,3 C 7,8 C 100 % 1031,8 hPa 0,0 l/m 0 min 0 min 33 W/m 9,7 km/h (2 Bft) 93,62 %
31.12.2018 11:32 8,7 C 8,3 C 7,8 C 100 % 1031,8 hPa 0,0 l/m 0 min 0 min 35 W/m 9,7 km/h (2 Bft) 93,48 %
31.12.2018 11:34 8,7 C 8,3 C 7,8 C 100 % 1031,8 hPa 0,0 l/m 0 min 0 min 39 W/m 3,2 km/h (1 Bft) 95,74 %
31.12.2018 11:36 8,7 C 8,3 C 7,8 C 100 % 1031,8 hPa 0,0 l/m 0 min 0 min 43 W/m 3,2 km/h (1 Bft) 94,92 %
31.12.2018 11:38 8,7 C 8,3 C 7,8 C 100 % 1031,8 hPa 0,0 l/m 0 min 0 min 46 W/m 3,2 km/h (1 Bft) 94,29 %
31.12.2018 11:40 8,7 C 8,3 C 7,8 C 100 % 1031,8 hPa 0,0 l/m 0 min 0 min 40 W/m 0,0 km/h (0 Bft) 93,62 %
31.12.2018 11:42 8,7 C 8,3 C 7,8 C 100 % 1031,9 hPa 0,0 l/m 0 min 0 min 33 W/m 0,0 km/h (0 Bft) 93,62 %
31.12.2018 11:44 8,8 C 8,3 C 7,8 C 100 % 1031,9 hPa 0,0 l/m 0 min 0 min 28 W/m 0,0 km/h (0 Bft) 95,65 %
31.12.2018 11:46 8,8 C 8,3 C 7,8 C 100 % 1031,9 hPa 0,0 l/m 0 min 0 min 20 W/m 0,0 km/h (0 Bft) 91,49 %
31.12.2018 11:48 8,8 C 8,3 C 7,8 C 100 % 1031,9 hPa 0,0 l/m 0 min 0 min 20 W/m 0,0 km/h (0 Bft) 91,49 %
31.12.2018 11:50 8,8 C 8,3 C 7,8 C 100 % 1032,0 hPa 0,0 l/m 0 min 0 min 25 W/m 12,9 km/h (3 Bft) 93,62 %
31.12.2018 11:52 8,8 C 8,3 C 7,8 C 100 % 1032,0 hPa 0,0 l/m 0 min 0 min 32 W/m 12,9 km/h (3 Bft) 93,62 %
31.12.2018 11:54 8,8 C 8,3 C 7,8 C 100 % 1031,9 hPa 0,0 l/m 0 min 0 min 37 W/m 19,3 km/h (3 Bft) 95,74 %
31.12.2018 11:56 8,9 C 8,3 C 7,8 C 100 % 1031,8 hPa 0,0 l/m 0 min 0 min 36 W/m 9,7 km/h (2 Bft) 93,48 %
31.12.2018 11:58 8,8 C 8,3 C 7,8 C 100 % 1031,9 hPa 0,0 l/m 0 min 0 min 30 W/m 9,7 km/h (2 Bft) 93,62 %
31.12.2018 12:00 8,9 C 8,3 C 7,8 C 100 % 1031,8 hPa 0,0 l/m 0 min 0 min 32 W/m 9,7 km/h (2 Bft) 93,62 %
31.12.2018 12:02 8,9 C 8,3 C 7,8 C 100 % 1031,8 hPa 0,0 l/m 0 min 0 min 36 W/m 6,4 km/h (2 Bft) 93,62 %
31.12.2018 12:04 8,8 C 8,3 C 7,8 C 100 % 1031,8 hPa 0,0 l/m 0 min 0 min 40 W/m 6,4 km/h (2 Bft) 93,62 %
31.12.2018 12:08 8,9 C 8,3 C 7,8 C 100 % 1031,7 hPa 0,0 l/m 0 min 0 min 40 W/m 6,4 km/h (2 Bft) 92,47 %
31.12.2018 12:10 8,9 C 8,3 C 7,8 C 100 % 1031,7 hPa 0,0 l/m 0 min 0 min 35 W/m 6,4 km/h (2 Bft) 91,49 %
31.12.2018 12:12 8,9 C 8,3 C 7,8 C 100 % 1031,7 hPa 0,0 l/m 0 min 0 min 38 W/m 3,2 km/h (1 Bft) 93,62 %
31.12.2018 12:14 8,9 C 8,3 C 7,8 C 100 % 1031,5 hPa 0,0 l/m 0 min 0 min 40 W/m 3,2 km/h (1 Bft) 91,49 %
31.12.2018 12:16 8,9 C 8,3 C 7,8 C 100 % 1031,6 hPa 0,0 l/m 0 min 0 min 42 W/m 3,2 km/h (1 Bft) 93,62 %
31.12.2018 12:18 8,9 C 8,3 C 7,8 C 100 % 1031,6 hPa 0,0 l/m 0 min 0 min 35 W/m 6,4 km/h (2 Bft) 97,83 %
31.12.2018 12:20 8,9 C 8,3 C 7,8 C 100 % 1031,5 hPa 0,0 l/m 0 min 0 min 29 W/m 9,7 km/h (2 Bft) 97,87 %
31.12.2018 12:22 8,9 C 8,3 C 7,8 C 100 % 1031,6 hPa 0,0 l/m 0 min 0 min 29 W/m 12,9 km/h (3 Bft) 100,00 %
31.12.2018 12:24 8,9 C 8,3 C 7,8 C 100 % 1031,7 hPa 0,0 l/m 0 min 0 min 27 W/m 3,2 km/h (1 Bft) 95,74 %
31.12.2018 12:26 8,9 C 8,3 C 7,8 C 100 % 1031,6 hPa 0,0 l/m 0 min 0 min 25 W/m 9,7 km/h (2 Bft) 93,62 %
31.12.2018 12:28 8,9 C 8,3 C 7,8 C 100 % 1031,6 hPa 0,0 l/m 0 min 0 min 24 W/m 6,4 km/h (2 Bft) 95,74 %
31.12.2018 12:30 8,9 C 8,3 C 7,8 C 100 % 1031,6 hPa 0,0 l/m 0 min 0 min 21 W/m 3,2 km/h (1 Bft) 100,00 %
31.12.2018 12:32 8,9 C 8,3 C 7,8 C 100 % 1031,6 hPa 0,0 l/m 0 min 0 min 23 W/m 6,4 km/h (2 Bft) 97,87 %
31.12.2018 12:34 8,9 C 8,3 C 7,8 C 100 % 1031,5 hPa 0,0 l/m 0 min 0 min 27 W/m 3,2 km/h (1 Bft) 97,87 %
31.12.2018 12:36 8,9 C 8,3 C 7,8 C 100 % 1031,4 hPa 0,0 l/m 0 min 0 min 32 W/m 6,4 km/h (2 Bft) 100,00 %
31.12.2018 12:38 8,9 C 8,3 C 7,8 C 100 % 1031,4 hPa 0,0 l/m 0 min 0 min 32 W/m 6,4 km/h (2 Bft) 100,00 %
31.12.2018 12:40 8,9 C 8,3 C 7,8 C 100 % 1031,4 hPa 0,0 l/m 0 min 0 min 33 W/m 3,2 km/h (1 Bft) 100,00 %
31.12.2018 12:42 8,9 C 8,3 C 7,8 C 100 % 1031,4 hPa 0,0 l/m 0 min 0 min 32 W/m 3,2 km/h (1 Bft) 100,00 %
31.12.2018 12:44 8,9 C 8,3 C 7,8 C 100 % 1031,3 hPa 0,0 l/m 0 min 0 min 29 W/m 6,4 km/h (2 Bft) 100,00 %
31.12.2018 12:46 8,9 C 8,3 C 7,8 C 100 % 1031,3 hPa 0,0 l/m 0 min 0 min 33 W/m 3,2 km/h (1 Bft) 97,87 %
31.12.2018 12:48 8,9 C 8,3 C 7,8 C 100 % 1031,3 hPa 0,0 l/m 0 min 0 min 32 W/m 3,2 km/h (1 Bft) 97,87 %
31.12.2018 12:50 8,9 C 8,3 C 7,8 C 100 % 1031,3 hPa 0,0 l/m 0 min 0 min 36 W/m 3,2 km/h (1 Bft) 100,00 %
31.12.2018 12:52 8,9 C 8,9 C 7,8 C 100 % 1031,3 hPa 0,0 l/m 0 min 0 min 40 W/m 0,0 km/h (0 Bft) 100,00 %
31.12.2018 12:54 8,9 C 8,3 C 7,8 C 100 % 1031,3 hPa 0,0 l/m 0 min 0 min 38 W/m 0,0 km/h (0 Bft) 100,00 %
31.12.2018 12:56 8,9 C 8,3 C 7,8 C 100 % 1031,3 hPa 0,0 l/m 0 min 0 min 36 W/m 3,2 km/h (1 Bft) 100,00 %
31.12.2018 12:58 8,9 C 8,3 C 7,8 C 100 % 1031,3 hPa 0,0 l/m 0 min 0 min 35 W/m 3,2 km/h (1 Bft) 100,00 %
31.12.2018 13:00 8,9 C 8,3 C 7,8 C 100 % 1031,2 hPa 0,0 l/m 0 min 0 min 35 W/m 0,0 km/h (0 Bft) 100,00 %
31.12.2018 13:02 8,9 C 8,9 C 7,8 C 100 % 1031,2 hPa 0,0 l/m 0 min 0 min 47 W/m 0,0 km/h (0 Bft) 100,00 %
31.12.2018 13:04 8,9 C 8,3 C 8,3 C 100 % 1031,2 hPa 0,0 l/m 0 min 0 min 54 W/m 6,4 km/h (2 Bft) 100,00 %
31.12.2018 13:06 8,9 C 8,9 C 8,3 C 100 % 1031,1 hPa 0,0 l/m 0 min 0 min 49 W/m 3,2 km/h (1 Bft) 100,00 %
31.12.2018 13:08 9,0 C 8,9 C 8,3 C 100 % 1031,1 hPa 0,0 l/m 0 min 0 min 53 W/m 6,4 km/h (2 Bft) 100,00 %
31.12.2018 13:10 9,0 C 8,9 C 8,3 C 100 % 1031,1 hPa 0,0 l/m 0 min 0 min 53 W/m 6,4 km/h (2 Bft) 100,00 %
31.12.2018 13:12 9,0 C 8,9 C 8,3 C 100 % 1031,2 hPa 0,0 l/m 0 min 0 min 49 W/m 9,7 km/h (2 Bft) 100,00 %
31.12.2018 13:14 9,0 C 8,9 C 8,3 C 100 % 1031,1 hPa 0,0 l/m 0 min 0 min 45 W/m 9,7 km/h (2 Bft) 100,00 %
31.12.2018 13:16 9,0 C 8,9 C 8,3 C 100 % 1031,2 hPa 0,0 l/m 0 min 0 min 46 W/m 12,9 km/h (3 Bft) 100,00 %
31.12.2018 13:18 9,0 C 8,9 C 8,3 C 100 % 1031,1 hPa 0,0 l/m 0 min 0 min 45 W/m 3,2 km/h (1 Bft) 100,00 %
31.12.2018 13:20 9,0 C 8,9 C 8,3 C 100 % 1031,1 hPa 0,0 l/m 0 min 0 min 43 W/m 3,2 km/h (1 Bft) 100,00 %
31.12.2018 13:22 9,0 C 8,9 C 8,3 C 100 % 1031,1 hPa 0,0 l/m 0 min 0 min 38 W/m 3,2 km/h (1 Bft) 97,87 %
31.12.2018 13:24 9,0 C 8,9 C 8,3 C 100 % 1031,1 hPa 0,0 l/m 0 min 0 min 36 W/m 9,7 km/h (2 Bft) 100,00 %
31.12.2018 13:26 9,0 C 8,9 C 8,3 C 100 % 1031,1 hPa 0,0 l/m 0 min 0 min 33 W/m 6,4 km/h (2 Bft) 97,87 %
31.12.2018 13:28 9,0 C 8,9 C 8,3 C 100 % 1031,1 hPa 0,0 l/m 0 min 0 min 34 W/m 6,4 km/h (2 Bft) 100,00 %
31.12.2018 13:30 9,0 C 8,3 C 8,3 C 100 % 1031,1 hPa 0,0 l/m 0 min 0 min 33 W/m 3,2 km/h (1 Bft) 100,00 %
31.12.2018 13:32 9,0 C 8,9 C 8,3 C 100 % 1031,2 hPa 0,0 l/m 0 min 0 min 31 W/m 9,7 km/h (2 Bft) 97,87 %
31.12.2018 13:34 9,0 C 8,3 C 8,3 C 100 % 1031,1 hPa 0,0 l/m 0 min 0 min 26 W/m 6,4 km/h (2 Bft) 100,00 %
31.12.2018 13:36 9,0 C 8,3 C 8,3 C 100 % 1031,1 hPa 0,0 l/m 0 min 0 min 26 W/m 0,0 km/h (0 Bft) 97,87 %
31.12.2018 13:38 9,0 C 8,3 C 8,3 C 100 % 1031,1 hPa 0,0 l/m 0 min 0 min 30 W/m 0,0 km/h (0 Bft) 97,87 %
31.12.2018 13:40 9,0 C 8,3 C 8,3 C 100 % 1031,1 hPa 0,0 l/m 0 min 0 min 32 W/m 6,4 km/h (2 Bft) 100,00 %
31.12.2018 13:42 9,0 C 8,3 C 8,3 C 100 % 1031,1 hPa 0,0 l/m 0 min 0 min 36 W/m 9,7 km/h (2 Bft) 100,00 %
31.12.2018 13:44 9,0 C 8,3 C 8,3 C 100 % 1031,1 hPa 0,0 l/m 0 min 0 min 39 W/m 6,4 km/h (2 Bft) 100,00 %
31.12.2018 13:46 9,0 C 8,3 C 8,3 C 100 % 1031,1 hPa 0,0 l/m 0 min 0 min 32 W/m 6,4 km/h (2 Bft) 100,00 %
31.12.2018 13:48 9,0 C 8,3 C 8,3 C 100 % 1031,0 hPa 0,0 l/m 0 min 0 min 29 W/m 6,4 km/h (2 Bft) 100,00 %
31.12.2018 13:50 9,0 C 8,9 C 8,3 C 100 % 1031,1 hPa 0,0 l/m 0 min 0 min 33 W/m 3,2 km/h (1 Bft) 97,87 %
31.12.2018 13:52 9,1 C 8,9 C 8,3 C 100 % 1031,1 hPa 0,0 l/m 0 min 0 min 33 W/m 9,7 km/h (2 Bft) 100,00 %
31.12.2018 13:54 9,0 C 8,3 C 8,3 C 100 % 1031,1 hPa 0,0 l/m 0 min 0 min 35 W/m 9,7 km/h (2 Bft) 100,00 %
31.12.2018 13:56 9,0 C 8,3 C 8,3 C 100 % 1031,1 hPa 0,0 l/m 0 min 0 min 39 W/m 6,4 km/h (2 Bft) 100,00 %
31.12.2018 13:58 9,0 C 8,3 C 8,3 C 100 % 1031,1 hPa 0,0 l/m 0 min 0 min 43 W/m 9,7 km/h (2 Bft) 100,00 %
31.12.2018 14:00 9,0 C 8,3 C 8,3 C 100 % 1031,1 hPa 0,0 l/m 0 min 0 min 40 W/m 12,9 km/h (3 Bft) 100,00 %
31.12.2018 14:02 9,0 C 8,3 C 8,3 C 100 % 1031,1 hPa 0,0 l/m 0 min 0 min 37 W/m 6,4 km/h (2 Bft) 100,00 %
31.12.2018 14:04 9,0 C 8,9 C 8,3 C 100 % 1031,1 hPa 0,0 l/m 0 min 0 min 38 W/m 6,4 km/h (2 Bft) 100,00 %
31.12.2018 14:06 9,0 C 8,3 C 8,3 C 100 % 1031,1 hPa 0,0 l/m 0 min 0 min 37 W/m 6,4 km/h (2 Bft) 95,74 %
31.12.2018 14:08 9,0 C 8,3 C 8,3 C 100 % 1031,0 hPa 0,0 l/m 0 min 0 min 38 W/m 6,4 km/h (2 Bft) 97,92 %
31.12.2018 14:10 9,0 C 8,9 C 8,3 C 100 % 1031,0 hPa 0,0 l/m 0 min 0 min 37 W/m 3,2 km/h (1 Bft) 97,87 %
31.12.2018 14:12 9,0 C 8,9 C 8,3 C 100 % 1031,1 hPa 0,0 l/m 0 min 0 min 38 W/m 3,2 km/h (1 Bft) 95,74 %
31.12.2018 14:14 9,0 C 8,9 C 8,3 C 100 % 1031,0 hPa 0,0 l/m 0 min 0 min 39 W/m 3,2 km/h (1 Bft) 95,74 %
31.12.2018 14:16 9,0 C 8,9 C 8,3 C 100 % 1031,1 hPa 0,0 l/m 0 min 0 min 41 W/m 3,2 km/h (1 Bft) 95,65 %
31.12.2018 14:18 9,0 C 8,9 C 8,3 C 100 % 1031,0 hPa 0,0 l/m 0 min 0 min 39 W/m 3,2 km/h (1 Bft) 97,87 %
31.12.2018 14:20 9,0 C 8,9 C 8,3 C 100 % 1031,0 hPa 0,0 l/m 0 min 0 min 36 W/m 0,0 km/h (0 Bft) 95,74 %
31.12.2018 14:22 9,0 C 8,9 C 8,3 C 100 % 1031,0 hPa 0,0 l/m 0 min 0 min 35 W/m 3,2 km/h (1 Bft) 93,62 %
31.12.2018 14:24 9,1 C 8,9 C 8,3 C 100 % 1030,9 hPa 0,0 l/m 0 min 0 min 33 W/m 0,0 km/h (0 Bft) 95,74 %
31.12.2018 14:26 9,1 C 8,9 C 8,3 C 100 % 1030,9 hPa 0,0 l/m 0 min 0 min 32 W/m 0,0 km/h (0 Bft) 95,65 %
31.12.2018 14:28 9,1 C 8,9 C 8,3 C 100 % 1030,9 hPa 0,0 l/m 0 min 0 min 36 W/m 0,0 km/h (0 Bft) 95,74 %
31.12.2018 14:30 9,1 C 8,9 C 8,3 C 100 % 1030,9 hPa 0,0 l/m 0 min 0 min 40 W/m 6,4 km/h (2 Bft) 93,62 %
31.12.2018 14:32 9,1 C 8,9 C 8,3 C 100 % 1031,0 hPa 0,0 l/m 0 min 0 min 40 W/m 3,2 km/h (1 Bft) 91,49 %
31.12.2018 14:34 9,1 C 8,9 C 8,3 C 100 % 1031,0 hPa 0,0 l/m 0 min 0 min 39 W/m 3,2 km/h (1 Bft) 93,62 %
31.12.2018 14:36 9,1 C 8,9 C 8,3 C 100 % 1031,0 hPa 0,0 l/m 0 min 0 min 32 W/m 0,0 km/h (0 Bft) 93,62 %
31.12.2018 14:38 9,1 C 8,9 C 8,3 C 100 % 1031,0 hPa 0,0 l/m 0 min 0 min 30 W/m 3,2 km/h (1 Bft) 91,30 %
31.12.2018 14:40 9,1 C 8,9 C 8,3 C 100 % 1030,9 hPa 0,0 l/m 0 min 0 min 32 W/m 3,2 km/h (1 Bft) 93,62 %
31.12.2018 14:42 9,1 C 8,9 C 8,3 C 100 % 1031,0 hPa 0,0 l/m 0 min 0 min 36 W/m 0,0 km/h (0 Bft) 93,62 %
31.12.2018 14:44 9,1 C 8,9 C 8,3 C 100 % 1031,0 hPa 0,0 l/m 0 min 0 min 40 W/m 3,2 km/h (1 Bft) 95,74 %
31.12.2018 14:46 9,1 C 8,9 C 8,3 C 100 % 1031,0 hPa 0,0 l/m 0 min 0 min 40 W/m 3,2 km/h (1 Bft) 95,92 %
31.12.2018 14:48 9,1 C 8,9 C 8,3 C 100 % 1030,9 hPa 0,0 l/m 0 min 0 min 39 W/m 3,2 km/h (1 Bft) 95,74 %
31.12.2018 14:50 9,1 C 8,9 C 8,3 C 100 % 1030,9 hPa 0,0 l/m 0 min 0 min 36 W/m 0,0 km/h (0 Bft) 95,65 %
31.12.2018 14:52 9,1 C 8,9 C 8,3 C 100 % 1030,9 hPa 0,0 l/m 0 min 0 min 33 W/m 6,4 km/h (2 Bft) 95,74 %
31.12.2018 14:54 9,2 C 8,9 C 8,3 C 100 % 1030,9 hPa 0,0 l/m 0 min 0 min 32 W/m 0,0 km/h (0 Bft) 95,74 %
31.12.2018 14:56 9,1 C 8,9 C 8,3 C 100 % 1031,0 hPa 0,0 l/m 0 min 0 min 30 W/m 0,0 km/h (0 Bft) 93,62 %
31.12.2018 14:58 9,1 C 8,9 C 8,3 C 100 % 1030,9 hPa 0,0 l/m 0 min 0 min 31 W/m 3,2 km/h (1 Bft) 95,74 %
31.12.2018 15:00 9,1 C 8,9 C 8,3 C 100 % 1030,8 hPa 0,0 l/m 0 min 0 min 33 W/m 3,2 km/h (1 Bft) 95,74 %
31.12.2018 15:02 9,1 C 8,9 C 8,3 C 100 % 1030,8 hPa 0,0 l/m 0 min 0 min 36 W/m 3,2 km/h (1 Bft) 93,48 %
31.12.2018 15:04 9,2 C 8,9 C 8,3 C 100 % 1030,9 hPa 0,0 l/m 0 min 0 min 34 W/m 3,2 km/h (1 Bft) 91,49 %
31.12.2018 15:06 9,1 C 8,9 C 8,3 C 100 % 1030,9 hPa 0,0 l/m 0 min 0 min 31 W/m 3,2 km/h (1 Bft) 93,62 %
31.12.2018 15:08 9,2 C 8,9 C 8,3 C 100 % 1030,9 hPa 0,0 l/m 0 min 0 min 28 W/m 3,2 km/h (1 Bft) 95,83 %
31.12.2018 15:10 9,2 C 8,9 C 8,3 C 100 % 1030,9 hPa 0,0 l/m 0 min 0 min 26 W/m 3,2 km/h (1 Bft) 93,62 %
31.12.2018 15:12 9,2 C 8,9 C 8,3 C 100 % 1030,9 hPa 0,0 l/m 0 min 0 min 27 W/m 3,2 km/h (1 Bft) 93,48 %
31.12.2018 15:14 9,2 C 8,9 C 8,3 C 100 % 1030,9 hPa 0,0 l/m 0 min 0 min 26 W/m 3,2 km/h (1 Bft) 93,62 %
31.12.2018 15:16 9,1 C 8,9 C 8,3 C 100 % 1030,9 hPa 0,0 l/m 0 min 0 min 29 W/m 3,2 km/h (1 Bft) 95,74 %
31.12.2018 15:18 9,2 C 8,9 C 8,3 C 100 % 1030,9 hPa 0,0 l/m 0 min 0 min 30 W/m 0,0 km/h (0 Bft) 93,62 %
31.12.2018 15:20 9,2 C 8,9 C 8,3 C 100 % 1031,0 hPa 0,0 l/m 0 min 0 min 26 W/m 0,0 km/h (0 Bft) 95,74 %
31.12.2018 15:22 9,2 C 8,3 C 8,3 C 100 % 1031,0 hPa 0,0 l/m 0 min 0 min 24 W/m 3,2 km/h (1 Bft) 100,00 %
31.12.2018 15:24 9,1 C 8,9 C 8,3 C 100 % 1031,0 hPa 0,0 l/m 0 min 0 min 23 W/m 6,4 km/h (2 Bft) 100,00 %
31.12.2018 15:26 9,1 C 8,3 C 8,3 C 100 % 1031,0 hPa 0,0 l/m 0 min 0 min 23 W/m 6,4 km/h (2 Bft) 100,00 %
31.12.2018 15:28 9,1 C 8,3 C 8,3 C 100 % 1031,0 hPa 0,0 l/m 0 min 0 min 21 W/m 0,0 km/h (0 Bft) 97,87 %
31.12.2018 15:30 9,1 C 8,3 C 8,3 C 100 % 1031,1 hPa 0,0 l/m 0 min 0 min 21 W/m 6,4 km/h (2 Bft) 100,00 %
31.12.2018 15:32 9,1 C 8,3 C 8,3 C 100 % 1031,0 hPa 0,0 l/m 0 min 0 min 19 W/m 3,2 km/h (1 Bft) 97,87 %
31.12.2018 15:34 9,1 C 8,3 C 8,3 C 100 % 1031,1 hPa 0,0 l/m 0 min 0 min 19 W/m 3,2 km/h (1 Bft) 100,00 %
31.12.2018 15:36 9,1 C 8,3 C 8,3 C 100 % 1031,1 hPa 0,0 l/m 0 min 0 min 18 W/m 3,2 km/h (1 Bft) 100,00 %
31.12.2018 15:38 9,1 C 8,3 C 8,3 C 100 % 1031,1 hPa 0,0 l/m 0 min 0 min 18 W/m 3,2 km/h (1 Bft) 97,87 %
31.12.2018 15:40 9,1 C 8,3 C 8,3 C 100 % 1031,1 hPa 0,0 l/m 0 min 0 min 18 W/m 6,4 km/h (2 Bft) 100,00 %
31.12.2018 15:42 9,1 C 8,3 C 8,3 C 100 % 1031,1 hPa 0,0 l/m 0 min 0 min 18 W/m 3,2 km/h (1 Bft) 97,87 %
31.12.2018 15:44 9,1 C 8,3 C 8,3 C 100 % 1031,1 hPa 0,0 l/m 0 min 0 min 16 W/m 6,4 km/h (2 Bft) 100,00 %
31.12.2018 15:46 9,1 C 8,3 C 8,3 C 100 % 1031,1 hPa 0,0 l/m 0 min 0 min 15 W/m 3,2 km/h (1 Bft) 100,00 %
31.12.2018 15:48 9,1 C 8,3 C 8,3 C 100 % 1031,1 hPa 0,0 l/m 0 min 0 min 13 W/m 6,4 km/h (2 Bft) 97,83 %
31.12.2018 15:50 9,1 C 8,3 C 8,3 C 100 % 1031,2 hPa 0,0 l/m 0 min 0 min 14 W/m 3,2 km/h (1 Bft) 100,00 %
31.12.2018 15:52 9,1 C 8,3 C 8,3 C 100 % 1031,2 hPa 0,0 l/m 0 min 0 min 13 W/m 3,2 km/h (1 Bft) 100,00 %
31.12.2018 15:54 9,1 C 8,3 C 8,3 C 100 % 1031,2 hPa 0,0 l/m 0 min 0 min 12 W/m 6,4 km/h (2 Bft) 100,00 %
31.12.2018 15:56 9,1 C 8,3 C 8,3 C 100 % 1031,1 hPa 0,0 l/m 0 min 0 min 12 W/m 3,2 km/h (1 Bft) 100,00 %
31.12.2018 15:58 9,1 C 8,3 C 8,3 C 100 % 1031,2 hPa 0,0 l/m 0 min 0 min 12 W/m 6,4 km/h (2 Bft) 100,00 %
31.12.2018 16:00 9,0 C 8,3 C 8,3 C 100 % 1031,2 hPa 0,0 l/m 0 min 0 min 12 W/m 9,7 km/h (2 Bft) 97,83 %
31.12.2018 16:02 9,0 C 8,3 C 8,3 C 100 % 1031,2 hPa 0,0 l/m 0 min 0 min 11 W/m 0,0 km/h (0 Bft) 100,00 %
31.12.2018 16:04 9,0 C 8,3 C 8,3 C 100 % 1031,2 hPa 0,0 l/m 0 min 0 min 11 W/m 3,2 km/h (1 Bft) 100,00 %
31.12.2018 16:06 9,0 C 8,3 C 8,3 C 100 % 1031,2 hPa 0,0 l/m 0 min 0 min 11 W/m 3,2 km/h (1 Bft) 100,00 %
31.12.2018 16:08 9,0 C 8,3 C 8,3 C 100 % 1031,2 hPa 0,0 l/m 0 min 0 min 11 W/m 0,0 km/h (0 Bft) 100,00 %
31.12.2018 16:10 9,0 C 8,3 C 8,3 C 100 % 1031,2 hPa 0,0 l/m 0 min 0 min 9 W/m 0,0 km/h (0 Bft) 100,00 %
31.12.2018 16:12 9,0 C 8,3 C 7,8 C 100 % 1031,2 hPa 0,0 l/m 0 min 0 min 9 W/m 0,0 km/h (0 Bft) 100,00 %
31.12.2018 16:14 9,0 C 8,3 C 7,8 C 100 % 1031,2 hPa 0,0 l/m 0 min 0 min 8 W/m 6,4 km/h (2 Bft) 100,00 %
31.12.2018 16:16 9,0 C 8,3 C 7,8 C 100 % 1031,2 hPa 0,0 l/m 0 min 0 min 7 W/m 3,2 km/h (1 Bft) 100,00 %
31.12.2018 16:18 9,0 C 8,3 C 7,8 C 100 % 1031,3 hPa 0,0 l/m 0 min 0 min 5 W/m 3,2 km/h (1 Bft) 100,00 %
31.12.2018 16:20 9,0 C 8,3 C 7,8 C 100 % 1031,2 hPa 0,0 l/m 0 min 0 min 5 W/m 3,2 km/h (1 Bft) 100,00 %
31.12.2018 16:22 9,0 C 8,3 C 7,8 C 100 % 1031,4 hPa 0,0 l/m 0 min 0 min 5 W/m 3,2 km/h (1 Bft) 100,00 %
31.12.2018 16:24 8,9 C 8,3 C 7,8 C 100 % 1031,3 hPa 0,0 l/m 0 min 0 min 5 W/m 3,2 km/h (1 Bft) 100,00 %
31.12.2018 16:26 8,9 C 8,3 C 7,8 C 100 % 1031,4 hPa 0,0 l/m 0 min 0 min 3 W/m 6,4 km/h (2 Bft) 97,87 %
31.12.2018 16:28 8,9 C 8,3 C 7,8 C 100 % 1031,4 hPa 0,0 l/m 0 min 0 min 0 W/m 3,2 km/h (1 Bft) 100,00 %
31.12.2018 16:30 8,9 C 8,3 C 7,8 C 100 % 1031,4 hPa 0,0 l/m 0 min 0 min 0 W/m 0,0 km/h (0 Bft) 97,87 %
31.12.2018 16:32 8,9 C 8,3 C 7,8 C 100 % 1031,4 hPa 0,0 l/m 0 min 0 min 0 W/m 3,2 km/h (1 Bft) 97,92 %
31.12.2018 16:34 8,9 C 8,3 C 7,8 C 100 % 1031,4 hPa 0,0 l/m 0 min 0 min 0 W/m 3,2 km/h (1 Bft) 97,83 %
31.12.2018 16:36 8,9 C 8,3 C 7,8 C 100 % 1031,3 hPa 0,0 l/m 0 min 0 min 0 W/m 3,2 km/h (1 Bft) 97,87 %
31.12.2018 16:38 8,9 C 8,3 C 7,8 C 100 % 1031,3 hPa 0,0 l/m 0 min 0 min 0 W/m 3,2 km/h (1 Bft) 97,87 %
31.12.2018 16:40 8,9 C 8,3 C 7,8 C 100 % 1031,4 hPa 0,0 l/m 0 min 0 min 0 W/m 3,2 km/h (1 Bft) 95,74 %
31.12.2018 16:42 8,9 C 8,3 C 7,8 C 100 % 1031,3 hPa 0,0 l/m 0 min 0 min 0 W/m 3,2 km/h (1 Bft) 97,87 %
31.12.2018 16:44 8,9 C 8,3 C 7,8 C 100 % 1031,4 hPa 0,0 l/m 0 min 0 min 0 W/m 0,0 km/h (0 Bft) 97,87 %
31.12.2018 16:46 8,9 C 8,3 C 7,8 C 100 % 1031,3 hPa 0,0 l/m 0 min 0 min 0 W/m 0,0 km/h (0 Bft) 97,83 %
31.12.2018 16:48 8,9 C 8,3 C 7,8 C 100 % 1031,3 hPa 0,0 l/m 0 min 0 min 0 W/m 0,0 km/h (0 Bft) 97,87 %
31.12.2018 16:50 8,9 C 8,3 C 7,8 C 100 % 1031,3 hPa 0,0 l/m 0 min 0 min 0 W/m 0,0 km/h (0 Bft) 87,23 %
31.12.2018 16:52 8,8 C 8,3 C 7,8 C 100 % 1031,3 hPa 0,0 l/m 0 min 0 min 0 W/m 0,0 km/h (0 Bft) 70,21 %
31.12.2018 16:54 8,8 C 8,3 C 7,8 C 100 % 1031,4 hPa 0,0 l/m 0 min 0 min 0 W/m 0,0 km/h (0 Bft) 68,09 %
31.12.2018 16:56 8,8 C 8,3 C 7,8 C 100 % 1031,3 hPa 0,0 l/m 0 min 0 min 0 W/m 0,0 km/h (0 Bft) 93,62 %
31.12.2018 16:58 8,8 C 8,3 C 7,8 C 100 % 1031,3 hPa 0,0 l/m 0 min 0 min 0 W/m 0,0 km/h (0 Bft) 86,96 %
31.12.2018 17:00 8,8 C 8,3 C 7,8 C 100 % 1031,3 hPa 0,0 l/m 0 min 0 min 0 W/m 0,0 km/h (0 Bft) 91,49 %
31.12.2018 17:02 8,8 C 8,3 C 7,8 C 100 % 1031,3 hPa 0,0 l/m 0 min 0 min 0 W/m 0,0 km/h (0 Bft) 93,62 %
31.12.2018 17:04 8,8 C 8,3 C 7,8 C 100 % 1031,3 hPa 0,0 l/m 0 min 0 min 0 W/m 0,0 km/h (0 Bft) 97,87 %
31.12.2018 17:06 8,8 C 8,3 C 7,8 C 100 % 1031,3 hPa 0,0 l/m 0 min 0 min 0 W/m 0,0 km/h (0 Bft) 91,49 %
31.12.2018 17:08 8,8 C 8,3 C 7,8 C 100 % 1031,3 hPa 0,0 l/m 0 min 0 min 0 W/m 0,0 km/h (0 Bft) 93,62 %
31.12.2018 17:10 8,8 C 8,3 C 7,8 C 100 % 1031,3 hPa 0,0 l/m 0 min 0 min 0 W/m 0,0 km/h (0 Bft) 95,65 %
31.12.2018 17:12 8,8 C 8,3 C 7,8 C 100 % 1031,3 hPa 0,0 l/m 0 min 0 min 0 W/m 0,0 km/h (0 Bft) 93,62 %
31.12.2018 17:14 8,8 C 8,3 C 7,8 C 99 % 1031,3 hPa 0,0 l/m 0 min 0 min 0 W/m 0,0 km/h (0 Bft) 89,36 %
31.12.2018 17:16 8,8 C 7,8 C 7,8 C 99 % 1031,3 hPa 0,0 l/m 0 min 0 min 0 W/m 0,0 km/h (0 Bft) 93,62 %
31.12.2018 17:18 8,8 C 7,8 C 7,8 C 99 % 1031,3 hPa 0,0 l/m 0 min 0 min 0 W/m 0,0 km/h (0 Bft) 95,74 %
31.12.2018 17:20 8,8 C 7,8 C 7,8 C 99 % 1031,3 hPa 0,0 l/m 0 min 0 min 0 W/m 0,0 km/h (0 Bft) 97,83 %
31.12.2018 17:22 8,8 C 7,8 C 7,8 C 99 % 1031,3 hPa 0,0 l/m 0 min 0 min 0 W/m 0,0 km/h (0 Bft) 100,00 %
31.12.2018 17:24 8,8 C 7,8 C 7,8 C 99 % 1031,2 hPa 0,0 l/m 0 min 0 min 0 W/m 0,0 km/h (0 Bft) 93,62 %
31.12.2018 17:26 8,8 C 8,3 C 7,8 C 99 % 1031,3 hPa 0,0 l/m 0 min 0 min 0 W/m 0,0 km/h (0 Bft) 89,36 %
31.12.2018 17:28 8,8 C 8,3 C 7,8 C 99 % 1031,3 hPa 0,0 l/m 0 min 0 min 0 W/m 0,0 km/h (0 Bft) 95,74 %
31.12.2018 17:30 8,8 C 8,3 C 7,8 C 99 % 1031,3 hPa 0,0 l/m 0 min 0 min 0 W/m 0,0 km/h (0 Bft) 95,74 %
31.12.2018 17:32 8,8 C 8,3 C 7,8 C 99 % 1031,3 hPa 0,0 l/m 0 min 0 min 0 W/m 0,0 km/h (0 Bft) 93,48 %
31.12.2018 17:34 8,8 C 8,3 C 7,8 C 99 % 1031,3 hPa 0,0 l/m 0 min 0 min 0 W/m 0,0 km/h (0 Bft) 89,36 %
31.12.2018 17:36 8,8 C 8,3 C 7,8 C 99 % 1031,3 hPa 0,0 l/m 0 min 0 min 0 W/m 0,0 km/h (0 Bft) 91,49 %
31.12.2018 17:38 8,8 C 8,3 C 7,8 C 99 % 1031,4 hPa 0,0 l/m 0 min 0 min 0 W/m 0,0 km/h (0 Bft) 95,83 %
31.12.2018 17:40 8,8 C 7,8 C 7,8 C 99 % 1031,4 hPa 0,0 l/m 0 min 0 min 0 W/m 0,0 km/h (0 Bft) 78,72 %
31.12.2018 17:42 8,8 C 8,3 C 7,8 C 99 % 1031,4 hPa 0,0 l/m 0 min 0 min 0 W/m 0,0 km/h (0 Bft) 89,13 %
31.12.2018 17:44 8,7 C 8,3 C 7,8 C 99 % 1031,4 hPa 0,0 l/m 0 min 0 min 0 W/m 0,0 km/h (0 Bft) 85,11 %
31.12.2018 17:46 8,8 C 8,3 C 7,8 C 99 % 1031,4 hPa 0,0 l/m 0 min 0 min 0 W/m 0,0 km/h (0 Bft) 93,62 %
31.12.2018 17:48 8,7 C 8,3 C 7,8 C 99 % 1031,4 hPa 0,0 l/m 0 min 0 min 0 W/m 0,0 km/h (0 Bft) 95,74 %
31.12.2018 17:50 8,7 C 8,3 C 7,8 C 99 % 1031,3 hPa 0,0 l/m 0 min 0 min 0 W/m 0,0 km/h (0 Bft) 91,43 %
31.12.2018 17:52 8,7 C 8,3 C 7,8 C 99 % 1031,5 hPa 0,0 l/m 0 min 0 min 0 W/m 0,0 km/h (0 Bft) 91,49 %
31.12.2018 17:54 8,8 C 7,8 C 7,8 C 99 % 1031,4 hPa 0,0 l/m 0 min 0 min 0 W/m 0,0 km/h (0 Bft) 95,74 %
31.12.2018 17:56 8,7 C 8,3 C 7,8 C 99 % 1031,4 hPa 0,0 l/m 0 min 0 min 0 W/m 0,0 km/h (0 Bft) 93,62 %
31.12.2018 17:58 8,7 C 8,3 C 7,8 C 99 % 1031,4 hPa 0,0 l/m 0 min 0 min 0 W/m 0,0 km/h (0 Bft) 95,65 %
31.12.2018 18:00 8,7 C 8,3 C 7,8 C 99 % 1031,4 hPa 0,0 l/m 0 min 0 min 0 W/m 0,0 km/h (0 Bft) 95,74 %
31.12.2018 18:02 8,7 C 8,3 C 7,8 C 99 % 1031,5 hPa 0,0 l/m 0 min 0 min 0 W/m 0,0 km/h (0 Bft) 95,74 %
31.12.2018 18:04 8,7 C 8,3 C 7,8 C 99 % 1031,4 hPa 0,0 l/m 0 min 0 min 0 W/m 0,0 km/h (0 Bft) 93,62 %
31.12.2018 18:08 8,7 C 8,3 C 7,8 C 99 % 1031,4 hPa 0,0 l/m 0 min 0 min 0 W/m 0,0 km/h (0 Bft) 94,68 %
31.12.2018 18:10 8,7 C 8,3 C 7,8 C 99 % 1031,5 hPa 0,0 l/m 0 min 0 min 0 W/m 0,0 km/h (0 Bft) 91,30 %
31.12.2018 18:12 8,7 C 8,3 C 7,8 C 99 % 1031,4 hPa 0,0 l/m 0 min 0 min 0 W/m 0,0 km/h (0 Bft) 95,74 %
31.12.2018 18:14 8,7 C 8,3 C 7,8 C 99 % 1031,4 hPa 0,0 l/m 0 min 0 min 0 W/m 0,0 km/h (0 Bft) 95,74 %
31.12.2018 18:16 8,7 C 8,3 C 7,8 C 99 % 1031,4 hPa 0,0 l/m 0 min 0 min 0 W/m 0,0 km/h (0 Bft) 97,87 %
31.12.2018 18:18 8,7 C 8,3 C 7,8 C 99 % 1031,4 hPa 0,0 l/m 0 min 0 min 0 W/m 0,0 km/h (0 Bft) 93,62 %
31.12.2018 18:20 8,7 C 8,3 C 7,8 C 99 % 1031,3 hPa 0,0 l/m 0 min 0 min 0 W/m 6,4 km/h (2 Bft) 91,49 %
31.12.2018 18:22 8,7 C 8,3 C 7,8 C 99 % 1031,4 hPa 0,0 l/m 0 min 0 min 0 W/m 12,9 km/h (3 Bft) 97,83 %
31.12.2018 18:24 8,7 C 8,3 C 7,8 C 99 % 1031,4 hPa 0,0 l/m 0 min 0 min 0 W/m 12,9 km/h (3 Bft) 87,23 %
31.12.2018 18:26 8,7 C 8,3 C 7,8 C 99 % 1031,3 hPa 0,0 l/m 0 min 0 min 0 W/m 9,7 km/h (2 Bft) 78,72 %
31.12.2018 18:28 8,7 C 8,3 C 7,8 C 99 % 1031,4 hPa 0,0 l/m 0 min 0 min 0 W/m 3,2 km/h (1 Bft) 80,85 %
31.12.2018 18:30 8,7 C 8,3 C 7,8 C 99 % 1031,4 hPa 0,0 l/m 0 min 0 min 0 W/m 3,2 km/h (1 Bft) 80,85 %
31.12.2018 18:32 8,7 C 7,8 C 7,8 C 99 % 1031,4 hPa 0,0 l/m 0 min 0 min 0 W/m 6,4 km/h (2 Bft) 93,48 %
31.12.2018 18:34 8,7 C 7,8 C 7,8 C 99 % 1031,4 hPa 0,0 l/m 0 min 0 min 0 W/m 6,4 km/h (2 Bft) 93,62 %
31.12.2018 18:36 8,7 C 7,8 C 7,8 C 99 % 1031,3 hPa 0,0 l/m 0 min 0 min 0 W/m 6,4 km/h (2 Bft) 94,92 %
31.12.2018 18:38 8,7 C 7,8 C 7,8 C 99 % 1031,4 hPa 0,0 l/m 0 min 0 min 0 W/m 3,2 km/h (1 Bft) 100,00 %
31.12.2018 18:40 8,7 C 7,8 C 7,8 C 99 % 1031,3 hPa 0,0 l/m 0 min 0 min 0 W/m 0,0 km/h (0 Bft) 95,74 %
31.12.2018 18:42 8,7 C 7,8 C 7,8 C 99 % 1031,3 hPa 0,0 l/m 0 min 0 min 0 W/m 0,0 km/h (0 Bft) 100,00 %
31.12.2018 18:44 8,7 C 7,8 C 7,8 C 99 % 1031,3 hPa 0,0 l/m 0 min 0 min 0 W/m 0,0 km/h (0 Bft) 97,83 %
31.12.2018 18:46 8,7 C 7,8 C 7,8 C 99 % 1031,3 hPa 0,0 l/m 0 min 0 min 0 W/m 0,0 km/h (0 Bft) 100,00 %
31.12.2018 18:48 8,7 C 7,8 C 7,8 C 99 % 1031,2 hPa 0,0 l/m 0 min 0 min 0 W/m 0,0 km/h (0 Bft) 89,36 %
31.12.2018 18:50 8,7 C 7,8 C 7,8 C 99 % 1031,3 hPa 0,0 l/m 0 min 0 min 0 W/m 0,0 km/h (0 Bft) 97,87 %
31.12.2018 18:52 8,7 C 7,8 C 7,8 C 99 % 1031,2 hPa 0,0 l/m 0 min 0 min 0 W/m 3,2 km/h (1 Bft) 97,87 %
31.12.2018 18:54 8,7 C 7,8 C 7,8 C 99 % 1031,2 hPa 0,0 l/m 0 min 0 min 0 W/m 3,2 km/h (1 Bft) 100,00 %
31.12.2018 18:56 8,7 C 7,8 C 7,8 C 99 % 1031,2 hPa 0,0 l/m 0 min 0 min 0 W/m 3,2 km/h (1 Bft) 89,13 %
31.12.2018 18:58 8,7 C 7,8 C 7,8 C 99 % 1031,2 hPa 0,0 l/m 0 min 0 min 0 W/m 3,2 km/h (1 Bft) 89,36 %
31.12.2018 19:00 8,7 C 7,8 C 7,8 C 99 % 1031,2 hPa 0,0 l/m 0 min 0 min 0 W/m 6,4 km/h (2 Bft) 95,74 %
31.12.2018 19:02 8,7 C 7,8 C 7,8 C 99 % 1031,2 hPa 0,0 l/m 0 min 0 min 0 W/m 3,2 km/h (1 Bft) 87,23 %
31.12.2018 19:04 8,7 C 7,8 C 7,8 C 99 % 1031,2 hPa 0,0 l/m 0 min 0 min 0 W/m 3,2 km/h (1 Bft) 91,49 %
31.12.2018 19:06 8,7 C 7,8 C 7,8 C 99 % 1031,3 hPa 0,0 l/m 0 min 0 min 0 W/m 0,0 km/h (0 Bft) 97,87 %
31.12.2018 19:08 8,7 C 7,8 C 7,8 C 99 % 1031,3 hPa 0,0 l/m 0 min 0 min 0 W/m 0,0 km/h (0 Bft) 97,83 %
31.12.2018 19:10 8,6 C 7,8 C 7,8 C 99 % 1031,3 hPa 0,0 l/m 0 min 0 min 0 W/m 6,4 km/h (2 Bft) 82,98 %
31.12.2018 19:12 8,6 C 7,8 C 7,8 C 99 % 1031,3 hPa 0,0 l/m 0 min 0 min 0 W/m 3,2 km/h (1 Bft) 89,36 %
31.12.2018 19:14 8,6 C 7,8 C 7,8 C 99 % 1031,4 hPa 0,0 l/m 0 min 0 min 0 W/m 6,4 km/h (2 Bft) 80,85 %
31.12.2018 19:16 8,6 C 7,8 C 7,8 C 99 % 1031,4 hPa 0,0 l/m 0 min 0 min 0 W/m 3,2 km/h (1 Bft) 68,09 %
31.12.2018 19:18 8,6 C 7,8 C 7,8 C 99 % 1031,4 hPa 0,0 l/m 0 min 0 min 0 W/m 3,2 km/h (1 Bft) 93,62 %
31.12.2018 19:20 8,6 C 7,8 C 7,8 C 99 % 1031,4 hPa 0,0 l/m 0 min 0 min 0 W/m 9,7 km/h (2 Bft) 84,78 %
31.12.2018 19:22 8,6 C 7,8 C 7,8 C 99 % 1031,4 hPa 0,0 l/m 0 min 0 min 0 W/m 3,2 km/h (1 Bft) 80,85 %
31.12.2018 19:24 8,6 C 7,8 C 7,8 C 99 % 1031,4 hPa 0,0 l/m 0 min 0 min 0 W/m 3,2 km/h (1 Bft) 80,85 %
31.12.2018 19:26 8,6 C 7,8 C 7,8 C 99 % 1031,4 hPa 0,0 l/m 0 min 0 min 0 W/m 3,2 km/h (1 Bft) 87,23 %
31.12.2018 19:28 8,5 C 7,8 C 7,2 C 99 % 1031,5 hPa 0,0 l/m 0 min 0 min 0 W/m 6,4 km/h (2 Bft) 85,11 %
31.12.2018 19:30 8,5 C 7,8 C 7,8 C 99 % 1031,5 hPa 0,0 l/m 0 min 0 min 0 W/m 9,7 km/h (2 Bft) 76,60 %
31.12.2018 19:32 8,4 C 7,8 C 7,2 C 99 % 1031,4 hPa 0,0 l/m 0 min 0 min 0 W/m 9,7 km/h (2 Bft) 76,09 %
31.12.2018 19:34 8,4 C 7,8 C 7,2 C 99 % 1031,4 hPa 0,0 l/m 0 min 0 min 0 W/m 9,7 km/h (2 Bft) 78,72 %
31.12.2018 19:36 8,4 C 7,8 C 7,2 C 99 % 1031,4 hPa 0,0 l/m 0 min 0 min 0 W/m 6,4 km/h (2 Bft) 72,34 %
31.12.2018 19:38 8,4 C 7,8 C 7,2 C 99 % 1031,4 hPa 0,0 l/m 0 min 0 min 0 W/m 3,2 km/h (1 Bft) 80,85 %
31.12.2018 19:40 8,4 C 7,8 C 7,2 C 99 % 1031,5 hPa 0,0 l/m 0 min 0 min 0 W/m 3,2 km/h (1 Bft) 78,72 %
31.12.2018 19:42 8,3 C 7,8 C 7,2 C 99 % 1031,5 hPa 0,0 l/m 0 min 0 min 0 W/m 9,7 km/h (2 Bft) 89,36 %
31.12.2018 19:44 8,3 C 7,8 C 7,2 C 99 % 1031,6 hPa 0,0 l/m 0 min 0 min 0 W/m 3,2 km/h (1 Bft) 89,13 %
31.12.2018 19:46 8,3 C 7,8 C 7,2 C 99 % 1031,5 hPa 0,0 l/m 0 min 0 min 0 W/m 3,2 km/h (1 Bft) 87,23 %
31.12.2018 19:48 8,3 C 7,8 C 7,2 C 99 % 1031,4 hPa 0,0 l/m 0 min 0 min 0 W/m 6,4 km/h (2 Bft) 74,47 %
31.12.2018 19:50 8,3 C 7,8 C 7,2 C 99 % 1031,4 hPa 0,0 l/m 0 min 0 min 0 W/m 3,2 km/h (1 Bft) 80,85 %
31.12.2018 19:52 8,3 C 7,8 C 7,2 C 99 % 1031,4 hPa 0,0 l/m 0 min 0 min 0 W/m 12,9 km/h (3 Bft) 85,11 %
31.12.2018 19:54 8,3 C 7,8 C 7,2 C 99 % 1031,5 hPa 0,0 l/m 0 min 0 min 0 W/m 6,4 km/h (2 Bft) 89,13 %
31.12.2018 19:56 8,3 C 7,8 C 7,8 C 99 % 1031,4 hPa 0,0 l/m 0 min 0 min 0 W/m 3,2 km/h (1 Bft) 70,21 %
31.12.2018 19:58 8,3 C 7,8 C 7,2 C 99 % 1031,4 hPa 0,0 l/m 0 min 0 min 0 W/m 6,4 km/h (2 Bft) 63,83 %
31.12.2018 20:00 8,2 C 7,8 C 7,2 C 99 % 1031,4 hPa 0,0 l/m 0 min 0 min 0 W/m 6,4 km/h (2 Bft) 70,21 %
31.12.2018 20:02 8,3 C 7,8 C 7,2 C 99 % 1031,5 hPa 0,0 l/m 0 min 0 min 0 W/m 0,0 km/h (0 Bft) 70,21 %
31.12.2018 20:04 8,3 C 7,8 C 7,2 C 99 % 1031,5 hPa 0,0 l/m 0 min 0 min 0 W/m 0,0 km/h (0 Bft) 68,09 %
31.12.2018 20:06 8,2 C 7,8 C 7,2 C 99 % 1031,4 hPa 0,0 l/m 0 min 0 min 0 W/m 0,0 km/h (0 Bft) 69,57 %
31.12.2018 20:08 8,3 C 7,8 C 7,2 C 99 % 1031,5 hPa 0,0 l/m 0 min 0 min 0 W/m 0,0 km/h (0 Bft) 70,21 %
31.12.2018 20:10 8,2 C 7,8 C 7,2 C 99 % 1031,4 hPa 0,0 l/m 0 min 0 min 0 W/m 0,0 km/h (0 Bft) 74,47 %
31.12.2018 20:12 8,2 C 7,8 C 7,2 C 99 % 1031,4 hPa 0,0 l/m 0 min 0 min 0 W/m 0,0 km/h (0 Bft) 70,21 %
31.12.2018 20:14 8,2 C 7,8 C 7,2 C 99 % 1031,4 hPa 0,0 l/m 0 min 0 min 0 W/m 0,0 km/h (0 Bft) 72,34 %
31.12.2018 20:16 8,2 C 7,8 C 7,2 C 99 % 1031,4 hPa 0,0 l/m 0 min 0 min 0 W/m 0,0 km/h (0 Bft) 68,09 %
31.12.2018 20:18 8,2 C 7,8 C 7,2 C 99 % 1031,4 hPa 0,0 l/m 0 min 0 min 0 W/m 0,0 km/h (0 Bft) 82,61 %
31.12.2018 20:20 8,2 C 7,8 C 7,2 C 99 % 1031,4 hPa 0,0 l/m 0 min 0 min 0 W/m 0,0 km/h (0 Bft) 65,96 %
31.12.2018 20:22 8,2 C 7,8 C 7,2 C 99 % 1031,5 hPa 0,0 l/m 0 min 0 min 0 W/m 0,0 km/h (0 Bft) 78,72 %
31.12.2018 20:24 8,2 C 7,8 C 7,2 C 99 % 1031,4 hPa 0,0 l/m 0 min 0 min 0 W/m 0,0 km/h (0 Bft) 87,23 %
31.12.2018 20:26 8,2 C 7,8 C 7,2 C 99 % 1031,4 hPa 0,0 l/m 0 min 0 min 0 W/m 0,0 km/h (0 Bft) 76,60 %
31.12.2018 20:28 8,2 C 7,8 C 7,2 C 99 % 1031,4 hPa 0,0 l/m 0 min 0 min 0 W/m 0,0 km/h (0 Bft) 91,49 %
31.12.2018 20:30 8,2 C 7,8 C 7,2 C 99 % 1031,4 hPa 0,0 l/m 0 min 0 min 0 W/m 0,0 km/h (0 Bft) 76,09 %
31.12.2018 20:32 8,2 C 7,8 C 7,2 C 99 % 1031,4 hPa 0,0 l/m 0 min 0 min 0 W/m 0,0 km/h (0 Bft) 70,21 %
31.12.2018 20:34 8,2 C 7,8 C 7,2 C 99 % 1031,4 hPa 0,0 l/m 0 min 0 min 0 W/m 0,0 km/h (0 Bft) 70,21 %
31.12.2018 20:36 8,2 C 7,8 C 7,2 C 99 % 1031,4 hPa 0,0 l/m 0 min 0 min 0 W/m 0,0 km/h (0 Bft) 78,72 %
31.12.2018 20:38 8,2 C 7,8 C 7,2 C 99 % 1031,4 hPa 0,0 l/m 0 min 0 min 0 W/m 0,0 km/h (0 Bft) 74,47 %
31.12.2018 20:40 8,2 C 7,8 C 7,2 C 99 % 1031,3 hPa 0,0 l/m 0 min 0 min 0 W/m 0,0 km/h (0 Bft) 70,21 %
31.12.2018 20:42 8,2 C 7,8 C 7,2 C 99 % 1031,3 hPa 0,0 l/m 0 min 0 min 0 W/m 0,0 km/h (0 Bft) 80,43 %
31.12.2018 20:44 8,2 C 7,8 C 7,2 C 99 % 1031,3 hPa 0,0 l/m 0 min 0 min 0 W/m 0,0 km/h (0 Bft) 68,09 %
31.12.2018 20:46 8,2 C 7,2 C 7,2 C 99 % 1031,2 hPa 0,0 l/m 0 min 0 min 0 W/m 0,0 km/h (0 Bft) 68,09 %
31.12.2018 20:48 8,2 C 7,2 C 7,2 C 99 % 1031,3 hPa 0,0 l/m 0 min 0 min 0 W/m 0,0 km/h (0 Bft) 65,96 %
31.12.2018 20:50 8,2 C 7,2 C 7,2 C 99 % 1031,2 hPa 0,0 l/m 0 min 0 min 0 W/m 0,0 km/h (0 Bft) 57,45 %
31.12.2018 20:52 8,2 C 7,2 C 7,2 C 99 % 1031,2 hPa 0,0 l/m 0 min 0 min 0 W/m 3,2 km/h (1 Bft) 63,83 %
31.12.2018 20:54 8,2 C 7,2 C 7,2 C 99 % 1031,1 hPa 0,0 l/m 0 min 0 min 0 W/m 0,0 km/h (0 Bft) 68,09 %
31.12.2018 20:56 8,2 C 7,2 C 7,2 C 99 % 1031,2 hPa 0,0 l/m 0 min 0 min 0 W/m 0,0 km/h (0 Bft) 63,83 %
31.12.2018 20:58 8,2 C 7,2 C 7,2 C 99 % 1031,1 hPa 0,0 l/m 0 min 0 min 0 W/m 0,0 km/h (0 Bft) 70,21 %
31.12.2018 21:00 8,2 C 7,2 C 7,2 C 99 % 1031,1 hPa 0,0 l/m 0 min 0 min 0 W/m 0,0 km/h (0 Bft) 74,47 %
31.12.2018 21:02 8,2 C 7,2 C 7,2 C 99 % 1031,1 hPa 0,0 l/m 0 min 0 min 0 W/m 3,2 km/h (1 Bft) 70,00 %
31.12.2018 21:04 8,2 C 7,2 C 7,2 C 99 % 1031,1 hPa 0,0 l/m 0 min 0 min 0 W/m 3,2 km/h (1 Bft) 69,57 %
31.12.2018 21:06 8,2 C 7,2 C 7,2 C 99 % 1031,1 hPa 0,0 l/m 0 min 0 min 0 W/m 3,2 km/h (1 Bft) 78,72 %
31.12.2018 21:08 8,1 C 7,2 C 7,2 C 99 % 1031,1 hPa 0,0 l/m 0 min 0 min 0 W/m 3,2 km/h (1 Bft) 70,21 %
31.12.2018 21:10 8,1 C 7,2 C 7,2 C 99 % 1031,1 hPa 0,0 l/m 0 min 0 min 0 W/m 6,4 km/h (2 Bft) 65,96 %
31.12.2018 21:12 8,1 C 7,2 C 7,2 C 99 % 1031,1 hPa 0,0 l/m 0 min 0 min 0 W/m 3,2 km/h (1 Bft) 65,96 %
31.12.2018 21:14 8,1 C 7,2 C 7,2 C 99 % 1031,0 hPa 0,0 l/m 0 min 0 min 0 W/m 3,2 km/h (1 Bft) 71,74 %
31.12.2018 21:16 8,1 C 7,2 C 7,2 C 99 % 1031,0 hPa 0,0 l/m 0 min 0 min 0 W/m 0,0 km/h (0 Bft) 68,09 %
31.12.2018 21:18 8,1 C 7,2 C 7,2 C 99 % 1031,0 hPa 0,0 l/m 0 min 0 min 0 W/m 6,4 km/h (2 Bft) 76,60 %
31.12.2018 21:20 8,1 C 7,2 C 7,2 C 99 % 1031,0 hPa 0,0 l/m 0 min 0 min 0 W/m 3,2 km/h (1 Bft) 68,09 %
31.12.2018 21:22 8,1 C 7,2 C 7,2 C 99 % 1031,0 hPa 0,0 l/m 0 min 0 min 0 W/m 3,2 km/h (1 Bft) 65,96 %
31.12.2018 21:24 8,1 C 7,2 C 7,2 C 99 % 1030,8 hPa 0,0 l/m 0 min 0 min 0 W/m 3,2 km/h (1 Bft) 76,60 %
31.12.2018 21:26 8,1 C 7,2 C 7,2 C 99 % 1031,0 hPa 0,0 l/m 0 min 0 min 0 W/m 3,2 km/h (1 Bft) 70,21 %
31.12.2018 21:28 8,1 C 7,2 C 7,2 C 99 % 1030,8 hPa 0,0 l/m 0 min 0 min 0 W/m 3,2 km/h (1 Bft) 80,43 %
31.12.2018 21:30 8,1 C 7,2 C 7,2 C 99 % 1030,8 hPa 0,0 l/m 0 min 0 min 0 W/m 6,4 km/h (2 Bft) 72,34 %
31.12.2018 21:32 8,1 C 7,2 C 7,2 C 99 % 1030,7 hPa 0,0 l/m 0 min 0 min 0 W/m 6,4 km/h (2 Bft) 91,49 %
31.12.2018 21:34 8,1 C 7,2 C 7,2 C 99 % 1030,7 hPa 0,0 l/m 0 min 0 min 0 W/m 3,2 km/h (1 Bft) 91,49 %
31.12.2018 21:36 8,1 C 7,2 C 7,2 C 99 % 1030,6 hPa 0,0 l/m 0 min 0 min 0 W/m 3,2 km/h (1 Bft) 70,21 %
31.12.2018 21:38 8,1 C 7,2 C 7,2 C 99 % 1030,6 hPa 0,0 l/m 0 min 0 min 0 W/m 6,4 km/h (2 Bft) 72,34 %
31.12.2018 21:40 8,1 C 7,2 C 7,2 C 99 % 1030,6 hPa 0,0 l/m 0 min 0 min 0 W/m 6,4 km/h (2 Bft) 65,22 %
31.12.2018 21:42 8,1 C 7,2 C 7,2 C 99 % 1030,6 hPa 0,0 l/m 0 min 0 min 0 W/m 6,4 km/h (2 Bft) 78,72 %
31.12.2018 21:44 8,1 C 7,2 C 7,2 C 99 % 1030,6 hPa 0,0 l/m 0 min 0 min 0 W/m 3,2 km/h (1 Bft) 76,60 %
31.12.2018 21:46 8,1 C 7,2 C 7,2 C 99 % 1030,7 hPa 0,0 l/m 0 min 0 min 0 W/m 3,2 km/h (1 Bft) 70,21 %
31.12.2018 21:48 8,1 C 7,2 C 7,2 C 99 % 1030,7 hPa 0,0 l/m 0 min 0 min 0 W/m 12,9 km/h (3 Bft) 80,85 %
31.12.2018 21:50 8,1 C 7,2 C 7,2 C 99 % 1030,7 hPa 0,0 l/m 0 min 0 min 0 W/m 6,4 km/h (2 Bft) 95,65 %
31.12.2018 21:52 8,1 C 7,2 C 7,2 C 99 % 1030,7 hPa 0,0 l/m 0 min 0 min 0 W/m 3,2 km/h (1 Bft) 95,74 %
31.12.2018 21:54 8,1 C 7,2 C 7,2 C 99 % 1030,7 hPa 0,0 l/m 0 min 0 min 0 W/m 0,0 km/h (0 Bft) 95,74 %
31.12.2018 21:56 8,1 C 7,2 C 7,2 C 99 % 1030,7 hPa 0,0 l/m 0 min 0 min 0 W/m 3,2 km/h (1 Bft) 95,74 %
31.12.2018 21:58 8,1 C 7,2 C 7,2 C 99 % 1030,7 hPa 0,0 l/m 0 min 0 min 0 W/m 3,2 km/h (1 Bft) 87,23 %
31.12.2018 22:00 8,1 C 7,2 C 7,2 C 99 % 1030,6 hPa 0,0 l/m 0 min 0 min 0 W/m 0,0 km/h (0 Bft) 97,87 %
31.12.2018 22:02 8,1 C 7,2 C 7,2 C 99 % 1030,7 hPa 0,0 l/m 0 min 0 min 0 W/m 9,7 km/h (2 Bft) 91,30 %
31.12.2018 22:04 8,1 C 7,2 C 7,2 C 99 % 1030,7 hPa 0,0 l/m 0 min 0 min 0 W/m 9,7 km/h (2 Bft) 97,87 %
31.12.2018 22:06 8,1 C 7,2 C 7,2 C 99 % 1030,7 hPa 0,0 l/m 0 min 0 min 0 W/m 3,2 km/h (1 Bft) 95,74 %
31.12.2018 22:08 8,1 C 7,2 C 7,2 C 99 % 1030,6 hPa 0,0 l/m 0 min 0 min 0 W/m 0,0 km/h (0 Bft) 93,62 %
31.12.2018 22:10 8,1 C 7,2 C 7,2 C 99 % 1030,7 hPa 0,0 l/m 0 min 0 min 0 W/m 6,4 km/h (2 Bft) 93,62 %
31.12.2018 22:12 8,1 C 7,2 C 7,2 C 99 % 1030,6 hPa 0,0 l/m 0 min 0 min 0 W/m 3,2 km/h (1 Bft) 80,85 %
31.12.2018 22:14 8,1 C 7,2 C 7,2 C 99 % 1030,6 hPa 0,0 l/m 0 min 0 min 0 W/m 0,0 km/h (0 Bft) 80,43 %
31.12.2018 22:16 8,1 C 7,2 C 7,2 C 99 % 1030,5 hPa 0,0 l/m 0 min 0 min 0 W/m 3,2 km/h (1 Bft) 70,21 %
31.12.2018 22:18 8,1 C 7,2 C 7,2 C 98 % 1030,5 hPa 0,0 l/m 0 min 0 min 0 W/m 3,2 km/h (1 Bft) 63,83 %
31.12.2018 22:20 8,1 C 7,2 C 7,2 C 98 % 1030,6 hPa 0,0 l/m 0 min 0 min 0 W/m 3,2 km/h (1 Bft) 74,47 %
31.12.2018 22:22 8,1 C 7,2 C 7,2 C 98 % 1030,6 hPa 0,0 l/m 0 min 0 min 0 W/m 6,4 km/h (2 Bft) 91,49 %
31.12.2018 22:24 8,1 C 7,2 C 7,2 C 98 % 1030,6 hPa 0,0 l/m 0 min 0 min 0 W/m 6,4 km/h (2 Bft) 93,62 %
31.12.2018 22:26 8,1 C 7,2 C 7,2 C 98 % 1030,6 hPa 0,0 l/m 0 min 0 min 0 W/m 6,4 km/h (2 Bft) 91,30 %
31.12.2018 22:28 8,1 C 7,2 C 7,2 C 98 % 1030,5 hPa 0,0 l/m 0 min 0 min 0 W/m 6,4 km/h (2 Bft) 95,74 %
31.12.2018 22:30 8,1 C 7,2 C 7,2 C 98 % 1030,5 hPa 0,0 l/m 0 min 0 min 0 W/m 6,4 km/h (2 Bft) 97,87 %
31.12.2018 22:32 8,1 C 7,2 C 7,2 C 98 % 1030,5 hPa 0,0 l/m 0 min 0 min 0 W/m 6,4 km/h (2 Bft) 100,00 %
31.12.2018 22:34 8,1 C 7,8 C 7,2 C 98 % 1030,5 hPa 0,0 l/m 0 min 0 min 0 W/m 3,2 km/h (1 Bft) 97,87 %
31.12.2018 22:36 8,1 C 7,8 C 7,2 C 98 % 1030,5 hPa 0,0 l/m 0 min 0 min 0 W/m 9,7 km/h (2 Bft) 100,00 %
31.12.2018 22:38 8,1 C 7,8 C 7,2 C 98 % 1030,5 hPa 0,0 l/m 0 min 0 min 0 W/m 6,4 km/h (2 Bft) 93,48 %
31.12.2018 22:40 8,1 C 7,8 C 7,2 C 98 % 1030,5 hPa 0,0 l/m 0 min 0 min 0 W/m 6,4 km/h (2 Bft) 95,74 %
31.12.2018 22:42 8,1 C 7,8 C 7,2 C 98 % 1030,5 hPa 0,0 l/m 0 min 0 min 0 W/m 6,4 km/h (2 Bft) 91,49 %
31.12.2018 22:44 8,1 C 7,8 C 7,2 C 98 % 1030,5 hPa 0,0 l/m 0 min 0 min 0 W/m 6,4 km/h (2 Bft) 95,74 %
31.12.2018 22:46 8,1 C 7,8 C 7,2 C 98 % 1030,5 hPa 0,0 l/m 0 min 0 min 0 W/m 6,4 km/h (2 Bft) 97,87 %
31.12.2018 22:48 8,1 C 7,8 C 7,2 C 98 % 1030,5 hPa 0,0 l/m 0 min 0 min 0 W/m 3,2 km/h (1 Bft) 93,62 %
31.12.2018 22:50 8,1 C 7,8 C 7,2 C 98 % 1030,5 hPa 0,0 l/m 0 min 0 min 0 W/m 9,7 km/h (2 Bft) 93,48 %
31.12.2018 22:52 8,1 C 7,8 C 7,2 C 98 % 1030,5 hPa 0,0 l/m 0 min 0 min 0 W/m 6,4 km/h (2 Bft) 87,23 %
31.12.2018 22:54 8,1 C 7,8 C 7,2 C 98 % 1030,5 hPa 0,0 l/m 0 min 0 min 0 W/m 6,4 km/h (2 Bft) 95,74 %
31.12.2018 22:56 8,1 C 7,8 C 7,2 C 98 % 1030,5 hPa 0,0 l/m 0 min 0 min 0 W/m 6,4 km/h (2 Bft) 76,60 %
31.12.2018 22:58 8,1 C 7,8 C 7,2 C 98 % 1030,5 hPa 0,0 l/m 0 min 0 min 0 W/m 6,4 km/h (2 Bft) 80,85 %
31.12.2018 23:00 8,1 C 7,2 C 7,2 C 98 % 1030,5 hPa 0,0 l/m 0 min 0 min 0 W/m 6,4 km/h (2 Bft) 78,26 %
31.12.2018 23:02 8,1 C 7,2 C 7,2 C 98 % 1030,5 hPa 0,0 l/m 0 min 0 min 0 W/m 3,2 km/h (1 Bft) 78,72 %
31.12.2018 23:04 8,1 C 7,2 C 6,7 C 98 % 1030,5 hPa 0,0 l/m 0 min 0 min 0 W/m 3,2 km/h (1 Bft) 87,23 %
31.12.2018 23:06 8,1 C 7,2 C 6,7 C 98 % 1030,5 hPa 0,0 l/m 0 min 0 min 0 W/m 3,2 km/h (1 Bft) 95,74 %
31.12.2018 23:08 8,1 C 7,2 C 6,7 C 98 % 1030,5 hPa 0,0 l/m 0 min 0 min 0 W/m 0,0 km/h (0 Bft) 93,62 %
31.12.2018 23:10 8,1 C 7,2 C 6,7 C 98 % 1030,5 hPa 0,0 l/m 0 min 0 min 0 W/m 9,7 km/h (2 Bft) 87,23 %
31.12.2018 23:12 8,1 C 7,2 C 6,7 C 98 % 1030,5 hPa 0,0 l/m 0 min 0 min 0 W/m 9,7 km/h (2 Bft) 80,43 %
31.12.2018 23:14 8,1 C 7,2 C 6,7 C 98 % 1030,6 hPa 0,0 l/m 0 min 0 min 0 W/m 9,7 km/h (2 Bft) 68,09 %
31.12.2018 23:16 8,1 C 7,2 C 6,7 C 98 % 1030,5 hPa 0,0 l/m 0 min 0 min 0 W/m 12,9 km/h (3 Bft) 78,72 %
31.12.2018 23:18 8,1 C 7,2 C 6,7 C 98 % 1030,5 hPa 0,0 l/m 0 min 0 min 0 W/m 9,7 km/h (2 Bft) 87,23 %
31.12.2018 23:20 8,1 C 7,2 C 6,7 C 98 % 1030,5 hPa 0,0 l/m 0 min 0 min 0 W/m 9,7 km/h (2 Bft) 91,49 %
31.12.2018 23:22 8,0 C 7,2 C 6,7 C 98 % 1030,5 hPa 0,0 l/m 0 min 0 min 0 W/m 16,1 km/h (3 Bft) 89,36 %
31.12.2018 23:24 8,0 C 7,2 C 6,7 C 98 % 1030,5 hPa 0,0 l/m 0 min 0 min 0 W/m 12,9 km/h (3 Bft) 91,30 %
31.12.2018 23:26 7,9 C 7,2 C 6,7 C 98 % 1030,5 hPa 0,0 l/m 0 min 0 min 0 W/m 19,3 km/h (3 Bft) 70,21 %
31.12.2018 23:28 7,9 C 7,2 C 6,7 C 98 % 1030,5 hPa 0,0 l/m 0 min 0 min 0 W/m 6,4 km/h (2 Bft) 80,85 %
31.12.2018 23:30 7,9 C 7,2 C 6,7 C 98 % 1030,6 hPa 0,0 l/m 0 min 0 min 0 W/m 12,9 km/h (3 Bft) 89,36 %
31.12.2018 23:32 7,9 C 7,2 C 6,7 C 98 % 1030,5 hPa 0,0 l/m 0 min 0 min 0 W/m 6,4 km/h (2 Bft) 100,00 %
31.12.2018 23:34 7,9 C 7,2 C 6,7 C 98 % 1030,5 hPa 0,0 l/m 0 min 0 min 0 W/m 3,2 km/h (1 Bft) 89,36 %
31.12.2018 23:36 7,8 C 7,2 C 6,7 C 98 % 1030,5 hPa 0,0 l/m 0 min 0 min 0 W/m 9,7 km/h (2 Bft) 82,61 %
31.12.2018 23:38 7,8 C 7,2 C 6,7 C 98 % 1030,4 hPa 0,0 l/m 0 min 0 min 0 W/m 9,7 km/h (2 Bft) 93,62 %
31.12.2018 23:40 7,8 C 7,2 C 6,7 C 98 % 1030,5 hPa 0,0 l/m 0 min 0 min 0 W/m 9,7 km/h (2 Bft) 93,62 %
31.12.2018 23:42 7,8 C 7,2 C 6,7 C 98 % 1030,4 hPa 0,0 l/m 0 min 0 min 0 W/m 12,9 km/h (3 Bft) 78,72 %
31.12.2018 23:44 7,8 C 7,2 C 6,7 C 98 % 1030,4 hPa 0,0 l/m 0 min 0 min 0 W/m 9,7 km/h (2 Bft) 78,72 %
31.12.2018 23:46 7,8 C 7,2 C 6,7 C 98 % 1030,5 hPa 0,0 l/m 0 min 0 min 0 W/m 3,2 km/h (1 Bft) 71,74 %
31.12.2018 23:48 7,8 C 7,2 C 6,7 C 98 % 1030,5 hPa 0,0 l/m 0 min 0 min 0 W/m 9,7 km/h (2 Bft) 68,09 %
31.12.2018 23:50 7,8 C 7,2 C 6,7 C 98 % 1030,4 hPa 0,0 l/m 0 min 0 min 0 W/m 3,2 km/h (1 Bft) 68,09 %
31.12.2018 23:52 7,8 C 7,2 C 6,7 C 98 % 1030,4 hPa 0,0 l/m 0 min 0 min 0 W/m 9,7 km/h (2 Bft) 70,21 %
31.12.2018 23:54 7,8 C 7,2 C 6,7 C 98 % 1030,4 hPa 0,0 l/m 0 min 0 min 0 W/m 6,4 km/h (2 Bft) 80,85 %
31.12.2018 23:56 7,8 C 7,2 C 6,7 C 98 % 1030,4 hPa 0,0 l/m 0 min 0 min 0 W/m 3,2 km/h (1 Bft) 78,72 %
31.12.2018 23:58 7,7 C 7,2 C 6,7 C 98 % 1030,4 hPa 0,0 l/m 0 min 0 min 0 W/m 3,2 km/h (1 Bft) 72,34 %
_ Min-Zeit 23:58 00:00 00:00 22:18 00:26 - - - - 00:16 20:50
Minimum _ 7,7 C 7,2 C 6,7 C 98 % 1030,0 hPa - - - - 0,0 km/h (0 Bft) 57,45 %
_ Max-Zeit 14:54 12:52 13:04 06:04 11:50 01:36 00:00 04:05 13:04 10:12 00:32
Maximum _ 9,2 C 8,9 C 8,3 C 100 % 1032,0 hPa 0,2 l/m 0 min 5 min 54 W/m 19,3 km/h
NW (3 Bft)
100,00 %
Durchschnitt _ 8,5 C 7,9 C 7,5 C 99 % 1030,9 hPa #0,4 l/m #0 min. #32 min. 26 W/m 4,0 km/h (1 Bft) 93,62 %
© 2019 W. Hausmann